AA3906 / N605KS 7700 Squawk Report (16th of May, 2021)

Aircraft E145 Reg No. N605KS Age N/A
Model ERJ-145 Jet engines 2 First flight 05-98
Registered 21-01-19 Rollout 05-98 Delivered 28-05-98
Construction No. 145059 Line No. N/A Series LR
ADSHEX A7DAC4 Airline name Envoy Air Owner Envoy Air
Airfield based Dallas-Fort Worth~TX~N First tracked N/A

Flight history for N605KS

Route Flight No Date Playback
Sheppard Afb Wichita Falls Muni (SPS) - Dallas Fort Worth (DFW) N/A 2021-06-24 12:34:00
Dallas Fort Worth (DFW) - Sheppard Afb Wichita Falls Muni (SPS) AA3869 2021-06-24 12:02:00
Jackson Evers Intl (JAN) - Dallas Fort Worth (DFW) AA4054 2021-06-24 02:13:00
Dallas Fort Worth (DFW) - Jackson Evers Intl (JAN) AA4055 2021-06-23 23:41:00
Laredo Intl (LRD) - Dallas Fort Worth (DFW) AA3909 2021-06-23 20:50:00
Dallas Fort Worth (DFW) - Laredo Intl (LRD) AA3862 2021-06-23 19:36:00
Dallas Fort Worth (DFW) - Alexandria Intl (AEX) - Dallas Fort Worth (DFW) AA4142 2021-06-23 16:44:00
Southeast Texas Rgnl (BPT) - Dallas Fort Worth (DFW) AA4428 2021-06-23 12:29:00
Dallas Fort Worth (DFW) - Southeast Texas Rgnl (BPT) AA4402 2021-06-23 03:10:00
Lake Charles Rgnl (LCH) - Dallas Fort Worth (DFW) AA3633 2021-06-23 00:37:00
Dallas Fort Worth (DFW) - Lawton-Fort Sill Regional Airport (LAW) - Dallas Fort Worth (DFW) AA4207 2021-06-22 20:51:00
Dallas Fort Worth (DFW) - Garden City Rgnl (GCK) - Dallas Fort Worth (DFW) AA3906 2021-06-22 11:51:00
Dallas Fort Worth (DFW) - Sheppard Afb Wichita Falls Muni (SPS) - Dallas Fort Worth (DFW) AA3693 2021-06-21 16:09:00
Southeast Texas Rgnl (BPT) - Dallas Fort Worth (DFW) AA4428 2021-06-21 12:10:00
Dallas Fort Worth (DFW) - Southeast Texas Rgnl (BPT) AA4402 2021-06-21 11:16:00
Lake Charles Rgnl (LCH) - Dallas Fort Worth (DFW) AA3633 2021-06-21 01:01:00
Sanford Regional (SFM) - Dallas Fort Worth (DFW) AA4236 2021-06-20 20:28:00
Dallas Fort Worth (DFW) - Abilene Rgnl (ABI) - Dallas Fort Worth (DFW) AA4039 2021-06-20 16:25:00
Montgomery Regional Airport (MGM) - Dallas Fort Worth (DFW) AA4070 2021-06-20 13:52:00
Dallas Fort Worth (DFW) - Montgomery Regional Airport (MGM) AA4011 2021-06-19 17:00:00
Time Lat Lon Altitude Heading Speed Vertical Rate
2021-05-16 18:49:05 GMT 32.886921 -97.035698 0 343 10 -64
2021-05-16 18:49:04 GMT 32.887039 -97.035744 0 343 10 -64
2021-05-16 18:49:03 GMT 32.886990 -97.035728 0 343 10 -64
2021-05-16 18:49:01 GMT 32.886902 -97.035683 0 345 10 -64
2021-05-16 18:49:00 GMT 32.886829 -97.035683 0 349 8 -64
2021-05-16 18:48:59 GMT 32.886822 -97.035599 0 2 10 -64
2021-05-16 18:48:58 GMT 32.886780 -97.035629 0 358 10 -64
2021-05-16 18:48:57 GMT 32.886700 -97.035606 0 0 11 32
2021-05-16 18:48:55 GMT 32.886631 -97.035591 0 5 10 32
2021-05-16 18:48:54 GMT 32.886600 -97.035622 0 358 11 32
2021-05-16 18:48:52 GMT 32.886478 -97.035637 0 355 9 32
2021-05-16 18:48:51 GMT 32.886440 -97.035629 0 358 9 32
2021-05-16 18:48:50 GMT 32.886372 -97.035606 0 359 11 32
2021-05-16 18:48:48 GMT 32.886341 -97.035622 0 343 11 32
2021-05-16 18:48:46 GMT 32.886219 -97.035583 0 324 8 32
2021-05-16 18:48:45 GMT 32.886200 -97.035606 0 311 10 32
2021-05-16 18:48:44 GMT 32.886108 -97.035568 0 284 12 32
2021-05-16 18:48:42 GMT 32.886070 -97.035538 0 275 13 32
2021-05-16 18:48:41 GMT 32.886040 -97.035461 0 273 13 32
2021-05-16 18:48:39 GMT 32.886040 -97.035347 0 271 14 32
2021-05-16 18:48:38 GMT 32.886040 -97.035240 0 267 11 32
2021-05-16 18:48:36 GMT 32.886002 -97.035133 0 277 9 32
2021-05-16 18:48:35 GMT 32.886040 -97.035103 0 307 10 32
2021-05-16 18:48:33 GMT 32.886002 -97.034973 0 331 6 32
2021-05-16 18:48:32 GMT 32.885971 -97.034950 0 340 7 32
2021-05-16 18:48:31 GMT 32.885971 -97.034920 0 348 9 32
2021-05-16 18:48:30 GMT 32.885910 -97.034889 0 358 14 32
2021-05-16 18:48:28 GMT 32.885841 -97.034889 0 358 13 32
2021-05-16 18:48:27 GMT 32.885792 -97.034882 0 359 14 32
2021-05-16 18:48:26 GMT 32.885731 -97.034866 0 359 15 32
2021-05-16 18:48:24 GMT 32.885609 -97.034882 0 357 18 32
2021-05-16 18:48:22 GMT 32.885460 -97.034866 0 8 18 32
2021-05-16 18:48:21 GMT 32.885361 -97.034866 0 21 15 32
2021-05-16 18:48:20 GMT 32.885231 -97.034920 0 37 14 0
2021-05-16 18:48:18 GMT 32.885151 -97.034920 0 59 14 0
2021-05-16 18:48:17 GMT 32.885120 -97.035004 0 63 14 0
2021-05-16 18:48:16 GMT 32.885021 -97.035141 0 87 14 0
2021-05-16 18:48:14 GMT 32.885021 -97.035210 0 85 16 0
2021-05-16 18:48:13 GMT 32.885010 -97.035301 0 88 15 0
2021-05-16 18:48:11 GMT 32.884991 -97.035431 0 92 20 0
2021-05-16 18:48:10 GMT 32.884998 -97.035561 0 91 17 0
2021-05-16 18:48:09 GMT 32.885021 -97.035660 0 83 17 0
2021-05-16 18:48:07 GMT 32.885021 -97.035843 0 83 19 0
2021-05-16 18:48:05 GMT 32.884972 -97.036148 0 93 21 0
2021-05-16 18:48:03 GMT 32.884991 -97.036270 0 89 21 0
2021-05-16 18:48:02 GMT 32.884998 -97.036377 0 89 21 0
2021-05-16 18:48:00 GMT 32.884998 -97.036621 0 90 21 0
2021-05-16 18:47:59 GMT 32.885010 -97.036743 0 88 21 0
2021-05-16 18:47:57 GMT 32.884979 -97.036957 0 95 23 0
2021-05-16 18:47:56 GMT 32.885010 -97.037102 0 88 22 0
2021-05-16 18:47:55 GMT 32.885021 -97.037231 0 84 21 0
2021-05-16 18:47:54 GMT 32.884998 -97.037323 0 89 23 0
2021-05-16 18:47:53 GMT 32.884998 -97.037582 0 88 22 0
2021-05-16 18:47:51 GMT 32.884972 -97.037720 0 95 20 0
2021-05-16 18:47:50 GMT 32.884972 -97.037788 0 98 24 0
2021-05-16 18:47:48 GMT 32.885021 -97.038078 0 91 21 0
2021-05-16 18:47:47 GMT 32.885052 -97.038200 0 84 21 0
2021-05-16 18:47:46 GMT 32.884991 -97.038406 0 92 22 0
2021-05-16 18:47:44 GMT 32.884991 -97.038528 0 93 22 0
2021-05-16 18:47:43 GMT 32.885010 -97.038757 0 90 23 0
2021-05-16 18:47:41 GMT 32.885021 -97.038887 0 87 23 0
2021-05-16 18:47:40 GMT 32.885040 -97.039040 0 79 20 0
2021-05-16 18:47:38 GMT 32.884979 -97.039230 0 91 22 0
2021-05-16 18:47:37 GMT 32.884960 -97.039352 0 95 24 0
2021-05-16 18:47:35 GMT 32.884991 -97.039619 0 93 21 0
2021-05-16 18:47:34 GMT 32.884991 -97.039749 0 94 19 0
2021-05-16 18:47:33 GMT 32.884998 -97.039879 0 93 17 0
2021-05-16 18:47:32 GMT 32.885010 -97.040047 0 90 19 0
2021-05-16 18:47:29 GMT 32.885010 -97.040260 0 89 22 0
2021-05-16 18:47:27 GMT 32.885021 -97.040520 0 87 19 0
2021-05-16 18:47:26 GMT 32.885010 -97.040619 0 87 20 0
2021-05-16 18:47:24 GMT 32.884991 -97.040848 0 90 19 0
2021-05-16 18:47:23 GMT 32.884979 -97.040962 0 93 19 0
2021-05-16 18:47:22 GMT 32.884991 -97.041054 0 90 21 0
2021-05-16 18:47:20 GMT 32.884972 -97.041290 0 95 21 0
2021-05-16 18:47:19 GMT 32.884998 -97.041382 0 91 23 0
2021-05-16 18:47:18 GMT 32.885021 -97.041512 0 87 23 0
2021-05-16 18:47:17 GMT 32.885010 -97.041641 0 89 23 0
2021-05-16 18:47:15 GMT 32.884991 -97.041901 0 93 21 0
2021-05-16 18:47:14 GMT 32.885010 -97.042023 0 88 21 0
2021-05-16 18:47:13 GMT 32.884998 -97.042229 0 92 22 0
2021-05-16 18:47:11 GMT 32.884991 -97.042358 0 96 23 0
2021-05-16 18:47:10 GMT 32.885010 -97.042488 0 93 22 0
2021-05-16 18:47:08 GMT 32.885029 -97.042740 0 90 21 0
2021-05-16 18:47:07 GMT 32.885029 -97.042862 0 90 21 0
2021-05-16 18:47:06 GMT 32.885052 -97.043068 0 85 23 0
2021-05-16 18:47:04 GMT 32.885021 -97.043213 0 89 22 0
2021-05-16 18:47:03 GMT 32.885029 -97.043373 0 86 20 0
2021-05-16 18:47:01 GMT 32.884972 -97.043587 0 99 22 0
2021-05-16 18:47:00 GMT 32.885010 -97.043678 0 92 24 0
2021-05-16 18:46:59 GMT 32.885029 -97.043953 0 89 22 0
2021-05-16 18:46:57 GMT 32.885040 -97.044083 0 86 21 0
2021-05-16 18:46:56 GMT 32.885029 -97.044182 0 88 23 0
2021-05-16 18:46:55 GMT 32.885021 -97.044434 0 86 22 0
2021-05-16 18:46:53 GMT 32.885010 -97.044662 0 89 24 0
2021-05-16 18:46:51 GMT 32.884998 -97.044807 0 92 20 0
2021-05-16 18:46:50 GMT 32.885029 -97.044907 0 84 21 0
2021-05-16 18:46:48 GMT 32.884998 -97.045143 0 87 20 0
2021-05-16 18:46:47 GMT 32.884972 -97.045258 0 98 20 0
2021-05-16 18:46:44 GMT 32.885040 -97.045601 0 85 20 0
2021-05-16 18:46:43 GMT 32.885010 -97.045723 0 90 19 0
2021-05-16 18:46:42 GMT 32.885021 -97.045921 0 90 20 0
2021-05-16 18:46:40 GMT 32.885021 -97.046028 0 86 19 0
2021-05-16 18:46:39 GMT 32.885021 -97.046143 0 89 20 0
2021-05-16 18:46:38 GMT 32.884991 -97.046379 0 96 18 0
2021-05-16 18:46:36 GMT 32.885010 -97.046471 0 93 19 0
2021-05-16 18:46:35 GMT 32.885029 -97.046547 0 88 21 0
2021-05-16 18:46:34 GMT 32.885029 -97.046677 0 88 20 0
2021-05-16 18:46:33 GMT 32.885021 -97.046898 0 90 22 0
2021-05-16 18:46:31 GMT 32.885021 -97.047028 0 90 22 0
2021-05-16 18:46:30 GMT 32.885010 -97.047256 0 92 21 0
2021-05-16 18:46:28 GMT 32.885010 -97.047363 0 93 23 0
2021-05-16 18:46:27 GMT 32.885029 -97.047623 0 91 22 0
2021-05-16 18:46:25 GMT 32.885029 -97.047737 0 92 22 0
2021-05-16 18:46:24 GMT 32.885040 -97.047859 0 90 22 0
2021-05-16 18:46:22 GMT 32.885040 -97.048126 0 89 20 0
2021-05-16 18:46:21 GMT 32.885040 -97.048241 0 88 19 0
2021-05-16 18:46:19 GMT 32.885029 -97.048439 0 93 22 0
2021-05-16 18:46:18 GMT 32.885040 -97.048561 0 89 22 0
2021-05-16 18:46:17 GMT 32.885040 -97.048698 0 90 20 0
2021-05-16 18:46:16 GMT 32.885052 -97.048927 0 89 19 0
2021-05-16 18:46:14 GMT 32.885052 -97.049026 0 88 19 0
2021-05-16 18:46:13 GMT 32.885029 -97.049232 0 91 20 0
2021-05-16 18:46:11 GMT 32.885052 -97.049332 0 87 21 0
2021-05-16 18:46:09 GMT 32.885052 -97.049568 0 87 21 0
2021-05-16 18:46:08 GMT 32.885029 -97.049683 0 90 21 0
2021-05-16 18:46:07 GMT 32.885021 -97.049797 0 93 21 0
2021-05-16 18:46:05 GMT 32.885040 -97.050041 0 90 19 0
2021-05-16 18:46:03 GMT 32.885040 -97.050240 0 89 21 0
2021-05-16 18:46:02 GMT 32.885040 -97.050362 0 90 21 0
2021-05-16 18:46:01 GMT 32.885029 -97.050484 0 93 21 0
2021-05-16 18:45:59 GMT 32.885040 -97.050713 0 91 20 0
2021-05-16 18:45:58 GMT 32.885052 -97.050819 0 88 20 0
2021-05-16 18:45:57 GMT 32.885040 -97.050926 0 90 20 0
2021-05-16 18:45:55 GMT 32.885040 -97.051147 0 91 20 0
2021-05-16 18:45:54 GMT 32.885052 -97.051270 0 91 19 0
2021-05-16 18:45:52 GMT 32.885040 -97.051483 0 95 19 0
2021-05-16 18:45:51 GMT 32.885059 -97.051582 0 89 19 0
2021-05-16 18:45:49 GMT 32.885052 -97.051804 0 93 19 0
2021-05-16 18:45:48 GMT 32.885029 -97.051918 0 99 17 0
2021-05-16 18:45:47 GMT 32.885040 -97.052017 0 102 16 0
2021-05-16 18:45:46 GMT 32.885059 -97.052109 0 99 16 0
2021-05-16 18:45:45 GMT 32.885090 -97.052269 0 94 14 0
2021-05-16 18:45:43 GMT 32.885078 -97.052361 0 97 13 0
2021-05-16 18:45:42 GMT 32.885090 -97.052437 0 99 11 0
2021-05-16 18:45:40 GMT 32.885109 -97.052559 0 100 11 0
2021-05-16 18:45:38 GMT 32.885120 -97.052673 0 99 10 0
2021-05-16 18:45:37 GMT 32.885132 -97.052719 0 98 9 0
2021-05-16 18:45:36 GMT 32.885139 -97.052834 0 96 8 0
2021-05-16 18:45:34 GMT 32.885151 -97.052879 0 97 9 0
2021-05-16 18:45:33 GMT 32.885151 -97.052917 0 99 9 0
2021-05-16 18:45:31 GMT 32.885159 -97.053017 0 102 10 0
2021-05-16 18:45:30 GMT 32.885181 -97.053131 0 101 10 0
2021-05-16 18:45:28 GMT 32.885189 -97.053169 0 100 12 0
2021-05-16 18:45:27 GMT 32.885201 -97.053238 0 105 12 0
2021-05-16 18:45:25 GMT 32.885220 -97.053368 0 105 11 0
2021-05-16 18:45:24 GMT 32.885239 -97.053429 0 104 11 0
2021-05-16 18:45:22 GMT 32.885281 -97.053596 0 100 15 0
2021-05-16 18:45:20 GMT 32.885300 -97.053680 0 98 16 0
2021-05-16 18:45:18 GMT 32.885300 -97.053848 0 112 17 0
2021-05-16 18:45:17 GMT 32.885330 -97.053940 0 112 18 0
2021-05-16 18:45:16 GMT 32.885399 -97.054123 0 107 18 0
2021-05-16 18:45:14 GMT 32.885422 -97.054222 0 111 17 0
2021-05-16 18:45:13 GMT 32.885441 -97.054314 0 113 18 0
2021-05-16 18:45:12 GMT 32.885502 -97.054489 0 113 17 0
2021-05-16 18:45:10 GMT 32.885529 -97.054588 0 116 16 0
2021-05-16 18:45:09 GMT 32.885571 -97.054649 0 114 18 0
2021-05-16 18:45:07 GMT 32.885639 -97.054848 0 115 16 0
2021-05-16 18:45:06 GMT 32.885700 -97.054993 0 114 20 0
2021-05-16 18:45:05 GMT 32.885738 -97.055099 0 116 19 0
2021-05-16 18:45:03 GMT 32.885780 -97.055206 0 119 17 0
2021-05-16 18:45:02 GMT 32.885830 -97.055283 0 113 18 0
2021-05-16 18:45:00 GMT 32.885880 -97.055450 0 120 21 0
2021-05-16 18:44:59 GMT 32.885979 -97.055672 0 123 19 0
2021-05-16 18:44:58 GMT 32.886040 -97.055771 0 121 17 0
2021-05-16 18:44:56 GMT 32.886082 -97.055832 0 118 18 0
2021-05-16 18:44:55 GMT 32.886101 -97.055908 0 122 21 0
2021-05-16 18:44:54 GMT 32.886189 -97.056107 0 127 20 0
2021-05-16 18:44:52 GMT 32.886250 -97.056190 0 127 20 0
2021-05-16 18:44:51 GMT 32.886299 -97.056282 0 128 20 0
2021-05-16 18:44:49 GMT 32.886421 -97.056427 0 124 21 0
2021-05-16 18:44:48 GMT 32.886452 -97.056557 0 134 19 0
2021-05-16 18:44:46 GMT 32.886589 -97.056717 0 130 19 0
2021-05-16 18:44:45 GMT 32.886711 -97.056870 0 128 19 0
2021-05-16 18:44:43 GMT 32.886742 -97.056953 0 132 21 0
2021-05-16 18:44:42 GMT 32.886810 -97.057037 0 133 20 0
2021-05-16 18:44:40 GMT 32.886940 -97.057198 0 135 22 0
2021-05-16 18:44:39 GMT 32.887001 -97.057289 0 136 22 0
2021-05-16 18:44:37 GMT 32.887138 -97.057449 0 136 23 0
2021-05-16 18:44:36 GMT 32.887218 -97.057541 0 134 23 0
2021-05-16 18:44:34 GMT 32.887440 -97.057800 0 139 24 0
2021-05-16 18:44:32 GMT 32.887531 -97.057877 0 138 24 0
2021-05-16 18:44:30 GMT 32.887699 -97.058060 0 138 21 0
2021-05-16 18:44:29 GMT 32.887772 -97.058144 0 137 22 0
2021-05-16 18:44:28 GMT 32.887852 -97.058220 0 136 22 0
2021-05-16 18:44:26 GMT 32.887989 -97.058380 0 139 24 0
2021-05-16 18:44:25 GMT 32.888161 -97.058563 0 144 23 0
2021-05-16 18:44:23 GMT 32.888260 -97.058632 0 140 22 0
2021-05-16 18:44:22 GMT 32.888329 -97.058678 0 137 24 0
2021-05-16 18:44:20 GMT 32.888489 -97.058868 0 137 23 0
2021-05-16 18:44:18 GMT 32.888641 -97.059052 0 139 23 0
2021-05-16 18:44:17 GMT 32.888729 -97.059113 0 136 23 0
2021-05-16 18:44:16 GMT 32.888809 -97.059212 0 138 22 0
2021-05-16 18:44:15 GMT 32.888969 -97.059372 0 138 22 0
2021-05-16 18:44:13 GMT 32.889050 -97.059464 0 140 20 0
2021-05-16 18:44:12 GMT 32.889118 -97.059532 0 140 20 0
2021-05-16 18:44:11 GMT 32.889259 -97.059692 0 143 21 0
2021-05-16 18:44:09 GMT 32.889339 -97.059761 0 143 21 0
2021-05-16 18:44:08 GMT 32.889408 -97.059830 0 142 22 0
2021-05-16 18:44:06 GMT 32.889591 -97.059959 0 135 20 0
2021-05-16 18:44:05 GMT 32.889660 -97.060059 0 138 18 0
2021-05-16 18:44:04 GMT 32.889790 -97.060181 0 136 18 0
2021-05-16 18:44:02 GMT 32.889851 -97.060249 0 137 19 0
2021-05-16 18:44:01 GMT 32.889900 -97.060310 0 139 21 0
2021-05-16 18:43:59 GMT 32.890060 -97.060463 0 134 19 0
2021-05-16 18:43:58 GMT 32.890121 -97.060516 0 133 19 0
2021-05-16 18:43:56 GMT 32.890228 -97.060692 0 140 20 0
2021-05-16 18:43:55 GMT 32.890301 -97.060783 0 144 19 0
2021-05-16 18:43:54 GMT 32.890369 -97.060822 0 141 19 0
2021-05-16 18:43:52 GMT 32.890518 -97.060959 0 141 20 0
2021-05-16 18:43:51 GMT 32.890598 -97.061020 0 136 18 0
2021-05-16 18:43:50 GMT 32.890659 -97.061096 0 140 18 0
2021-05-16 18:43:48 GMT 32.890789 -97.061218 0 141 19 0
2021-05-16 18:43:46 GMT 32.890991 -97.061417 0 141 21 0
2021-05-16 18:43:44 GMT 32.891071 -97.061501 0 140 19 0
2021-05-16 18:43:42 GMT 32.891220 -97.061623 0 137 20 0
2021-05-16 18:43:41 GMT 32.891300 -97.061684 0 135 20 0
2021-05-16 18:43:39 GMT 32.891418 -97.061836 0 137 19 0
2021-05-16 18:43:38 GMT 32.891491 -97.061913 0 137 19 0
2021-05-16 18:43:37 GMT 32.891548 -97.061989 0 138 19 0
2021-05-16 18:43:35 GMT 32.891689 -97.062119 0 137 19 0
2021-05-16 18:43:34 GMT 32.891830 -97.062279 0 138 19 0
2021-05-16 18:43:32 GMT 32.891899 -97.062340 0 134 18 0
2021-05-16 18:43:31 GMT 32.891972 -97.062401 0 134 19 0
2021-05-16 18:43:30 GMT 32.892071 -97.062569 0 142 21 0
2021-05-16 18:43:28 GMT 32.892159 -97.062630 0 138 19 0
2021-05-16 18:43:27 GMT 32.892300 -97.062759 0 137 19 0
2021-05-16 18:43:25 GMT 32.892361 -97.062843 0 140 19 0
2021-05-16 18:43:24 GMT 32.892422 -97.062912 0 142 20 0
2021-05-16 18:43:23 GMT 32.892578 -97.063049 0 140 18 0
2021-05-16 18:43:21 GMT 32.892639 -97.063103 0 137 19 0
2021-05-16 18:43:20 GMT 32.892780 -97.063240 0 136 20 0
2021-05-16 18:43:19 GMT 32.892841 -97.063332 0 140 20 0
2021-05-16 18:43:17 GMT 32.892910 -97.063393 0 139 20 0
2021-05-16 18:43:16 GMT 32.892990 -97.063477 0 139 19 0
2021-05-16 18:43:15 GMT 32.893120 -97.063599 0 136 19 0
2021-05-16 18:43:13 GMT 32.893200 -97.063683 0 136 18 0
2021-05-16 18:43:12 GMT 32.893250 -97.063751 0 137 19 0
2021-05-16 18:43:11 GMT 32.893372 -97.063911 0 144 19 0
2021-05-16 18:43:09 GMT 32.893452 -97.063980 0 144 17 0
2021-05-16 18:43:08 GMT 32.893532 -97.064034 0 141 16 0
2021-05-16 18:43:07 GMT 32.893661 -97.064117 0 134 17 0
2021-05-16 18:43:05 GMT 32.893711 -97.064194 0 135 18 0
2021-05-16 18:43:03 GMT 32.893829 -97.064339 0 138 16 0
2021-05-16 18:43:02 GMT 32.893890 -97.064377 0 135 16 0
2021-05-16 18:43:01 GMT 32.893990 -97.064522 0 140 15 0
2021-05-16 18:42:59 GMT 32.894039 -97.064583 0 142 15 0
2021-05-16 18:42:58 GMT 32.894100 -97.064636 0 142 14 0
2021-05-16 18:42:56 GMT 32.894211 -97.064743 0 139 13 0
2021-05-16 18:42:55 GMT 32.894272 -97.064774 0 137 13 0
2021-05-16 18:42:54 GMT 32.894348 -97.064850 0 136 16 0
2021-05-16 18:42:52 GMT 32.894421 -97.064919 0 133 14 0
2021-05-16 18:42:50 GMT 32.894508 -97.065041 0 140 13 0
2021-05-16 18:42:49 GMT 32.894562 -97.065086 0 141 13 0
2021-05-16 18:42:48 GMT 32.894611 -97.065132 0 140 14 0
2021-05-16 18:42:46 GMT 32.894718 -97.065231 0 134 14 0
2021-05-16 18:42:45 GMT 32.894779 -97.065292 0 132 13 0
2021-05-16 18:42:44 GMT 32.894859 -97.065399 0 137 12 0
2021-05-16 18:42:42 GMT 32.894901 -97.065468 0 139 11 0
2021-05-16 18:42:41 GMT 32.894939 -97.065498 0 137 11 0
2021-05-16 18:42:39 GMT 32.895031 -97.065567 0 128 10 0
2021-05-16 18:42:38 GMT 32.895081 -97.065620 0 118 7 0
2021-05-16 18:42:37 GMT 32.895119 -97.065758 0 112 4 -32
2021-05-16 18:42:35 GMT 32.895210 -97.065880 0 112 6 -32
2021-05-16 18:42:34 GMT 32.895222 -97.065773 0 112 1 -32
2021-05-16 18:42:32 GMT 32.895210 -97.065773 0 112 0 -32
2021-05-16 18:42:31 GMT 32.895222 -97.065804 0 112 0 -32
2021-05-16 18:42:27 GMT 32.895222 -97.065811 0 112 0 -32
2021-05-16 18:42:24 GMT 32.895222 -97.065804 0 112 0 -32
2021-05-16 18:42:21 GMT 32.895229 -97.065788 0 112 1 -32
2021-05-16 18:42:20 GMT 32.895210 -97.065819 0 113 0 -32
2021-05-16 18:42:18 GMT 32.895210 -97.065819 0 113 0 -32
2021-05-16 18:42:17 GMT 32.895210 -97.065811 0 113 0 -32
2021-05-16 18:42:14 GMT 32.895210 -97.065804 0 115 0 -32
2021-05-16 18:42:13 GMT 32.895210 -97.065781 0 115 1 -32
2021-05-16 18:42:11 GMT 32.895222 -97.065811 0 115 0 -32
2021-05-16 18:42:10 GMT 32.895210 -97.065819 0 116 0 -32
2021-05-16 18:42:08 GMT 32.895210 -97.065811 0 116 0 -32
2021-05-16 18:42:07 GMT 32.895210 -97.065826 0 116 1 -32
2021-05-16 18:42:06 GMT 32.895210 -97.065819 0 115 1 -32
2021-05-16 18:42:04 GMT 32.895199 -97.065872 0 111 2 -32
2021-05-16 18:42:03 GMT 32.895199 -97.065857 0 109 2 -32
2021-05-16 18:42:01 GMT 32.895199 -97.065842 0 102 2 -32
2021-05-16 18:41:59 GMT 32.895222 -97.065804 0 102 0 -32
2021-05-16 18:41:56 GMT 32.895222 -97.065773 0 104 2 -32
2021-05-16 18:41:52 GMT 32.895210 -97.065811 0 104 0 -32
2021-05-16 18:41:51 GMT 32.895199 -97.065819 0 104 0 -32
2021-05-16 18:41:47 GMT 32.895210 -97.065819 0 104 0 -32
2021-05-16 18:41:43 GMT 32.895210 -97.065811 0 104 0 -32
2021-05-16 18:41:41 GMT 32.895210 -97.065849 0 104 1 -32
2021-05-16 18:41:39 GMT 32.895210 -97.065819 0 104 0 -32
2021-05-16 18:41:38 GMT 32.895210 -97.065826 0 104 1 -32
2021-05-16 18:41:36 GMT 32.895199 -97.065804 0 103 1 -32
2021-05-16 18:41:35 GMT 32.895210 -97.065804 0 103 1 -32
2021-05-16 18:41:33 GMT 32.895199 -97.065804 0 101 1 -32
2021-05-16 18:41:32 GMT 32.895222 -97.065804 0 101 0 -32
2021-05-16 18:41:30 GMT 32.895248 -97.065811 0 101 2 -32
2021-05-16 18:41:28 GMT 32.895241 -97.065804 0 103 1 -32
2021-05-16 18:41:22 GMT 32.895222 -97.065804 0 103 0 -32
2021-05-16 18:41:19 GMT 32.895222 -97.065811 0 103 0 -32
2021-05-16 18:41:18 GMT 32.895222 -97.065819 0 103 0 -32
2021-05-16 18:41:15 GMT 32.895222 -97.065804 0 103 0 -32
2021-05-16 18:41:13 GMT 32.895210 -97.065811 0 103 0 -32
2021-05-16 18:41:08 GMT 32.895222 -97.065811 0 103 0 -32
2021-05-16 18:41:06 GMT 32.895210 -97.065811 0 103 0 -32
2021-05-16 18:41:02 GMT 32.895222 -97.065804 0 98 0 -32
2021-05-16 18:40:59 GMT 32.895222 -97.065804 0 98 0 -32
2021-05-16 18:40:56 GMT 32.895222 -97.065804 0 98 0 -32
2021-05-16 18:40:51 GMT 32.895210 -97.065811 0 98 0 -32
2021-05-16 18:40:50 GMT 32.895210 -97.065819 0 97 1 -32
2021-05-16 18:40:49 GMT 32.895210 -97.065804 0 97 0 -32
2021-05-16 18:40:47 GMT 32.895210 -97.065788 0 97 0 -32
2021-05-16 18:40:46 GMT 32.895222 -97.065781 0 97 1 -32
2021-05-16 18:40:43 GMT 32.895222 -97.065811 0 93 0 -32
2021-05-16 18:40:42 GMT 32.895229 -97.065804 0 93 0 -32
2021-05-16 18:40:41 GMT 32.895229 -97.065788 0 93 0 -32
2021-05-16 18:40:37 GMT 32.895222 -97.065781 0 99 3 -32
2021-05-16 18:40:35 GMT 32.895210 -97.065804 0 101 3 -32
2021-05-16 18:40:34 GMT 32.895210 -97.065842 0 101 0 -32
2021-05-16 18:40:32 GMT 32.895191 -97.065857 0 101 3 -32
2021-05-16 18:40:31 GMT 32.895210 -97.065872 0 101 1 -32
2021-05-16 18:40:30 GMT 32.895241 -97.065849 0 104 4 -32
2021-05-16 18:40:28 GMT 32.895241 -97.065880 0 107 2 -32
2021-05-16 18:40:26 GMT 32.895229 -97.065872 0 106 7 -32
2021-05-16 18:40:25 GMT 32.895229 -97.065918 0 113 6 -32
2021-05-16 18:40:24 GMT 32.895229 -97.065948 0 113 7 -32
2021-05-16 18:40:22 GMT 32.895271 -97.066017 0 111 6 -32
2021-05-16 18:40:21 GMT 32.895279 -97.066040 0 115 7 -32
2021-05-16 18:40:19 GMT 32.895309 -97.066116 0 108 8 -32
2021-05-16 18:40:18 GMT 32.895329 -97.066147 0 103 8 -32
2021-05-16 18:40:17 GMT 32.895351 -97.066223 0 104 10 -32
2021-05-16 18:40:15 GMT 32.895351 -97.066261 0 109 13 -32
2021-05-16 18:40:14 GMT 32.895390 -97.066383 0 105 12 -32
2021-05-16 18:40:12 GMT 32.895409 -97.066429 0 104 14 -32
2021-05-16 18:40:11 GMT 32.895420 -97.066521 0 108 13 -32
2021-05-16 18:40:09 GMT 32.895458 -97.066650 0 109 15 -32
2021-05-16 18:40:08 GMT 32.895470 -97.066719 0 111 17 -32
2021-05-16 18:40:07 GMT 32.895538 -97.066887 0 108 16 -32
2021-05-16 18:40:05 GMT 32.895561 -97.066971 0 108 17 -32
2021-05-16 18:40:04 GMT 32.895618 -97.067146 0 106 20 -32
2021-05-16 18:40:02 GMT 32.895649 -97.067238 0 107 22 -32
2021-05-16 18:40:01 GMT 32.895699 -97.067436 0 107 26 -32
2021-05-16 18:39:59 GMT 32.895748 -97.067558 0 104 26 -32
2021-05-16 18:39:58 GMT 32.895779 -97.067703 0 105 27 -32
2021-05-16 18:39:56 GMT 32.895851 -97.067993 0 109 27 -32
2021-05-16 18:39:55 GMT 32.895901 -97.068138 0 110 27 -32
2021-05-16 18:39:54 GMT 32.895988 -97.068398 0 113 31 -32
2021-05-16 18:39:52 GMT 32.896042 -97.068588 0 117 30 -32
2021-05-16 18:39:51 GMT 32.896099 -97.068733 0 119 31 -32
2021-05-16 18:39:49 GMT 32.896259 -97.069008 0 119 33 -32
2021-05-16 18:39:48 GMT 32.896339 -97.069183 0 122 34 -32
2021-05-16 18:39:47 GMT 32.896511 -97.069527 0 130 34 -32
2021-05-16 18:39:45 GMT 32.896610 -97.069679 0 132 35 -32
2021-05-16 18:39:44 GMT 32.896721 -97.069839 0 135 37 -32
2021-05-16 18:39:43 GMT 32.896980 -97.070152 0 138 41 -32
2021-05-16 18:39:41 GMT 32.897099 -97.070297 0 139 44 -32
2021-05-16 18:39:39 GMT 32.897430 -97.070633 0 138 52 64
2021-05-16 18:39:38 GMT 32.897598 -97.070808 0 138 54 64
2021-05-16 18:39:37 GMT 32.897991 -97.071243 0 139 60 64
2021-05-16 18:39:35 GMT 32.898209 -97.071426 0 138 64 64
2021-05-16 18:39:33 GMT 32.898651 -97.071922 0 139 74 -32
2021-05-16 18:39:32 GMT 32.898918 -97.072166 550 138 78 -32
2021-05-16 18:39:31 GMT 32.899460 -97.072731 550 138 91 -32
2021-05-16 18:39:29 GMT 32.899738 -97.073051 550 139 99 -32
2021-05-16 18:39:27 GMT 32.900398 -97.073708 575 138 114 -32
2021-05-16 18:39:26 GMT 32.900780 -97.074081 575 138 119 576
2021-05-16 18:39:24 GMT 32.901581 -97.074951 575 139 124 576
2021-05-16 18:39:23 GMT 32.902012 -97.075394 575 139 126 576
2021-05-16 18:39:22 GMT 32.902451 -97.075851 575 139 127 576
2021-05-16 18:39:20 GMT 32.903339 -97.076782 550 140 130 576
2021-05-16 18:39:19 GMT 32.903801 -97.077179 550 138 134 576
2021-05-16 18:39:17 GMT 32.904720 -97.078140 550 138 138 576
2021-05-16 18:39:16 GMT 32.905209 -97.078659 550 139 138 352
2021-05-16 18:39:15 GMT 32.906181 -97.079628 550 138 141 -576
2021-05-16 18:39:12 GMT 32.907150 -97.080612 550 138 146 -576
2021-05-16 18:39:11 GMT 32.907639 -97.081139 575 138 146 -576
2021-05-16 18:39:10 GMT 32.908642 -97.082222 600 139 145 -576
2021-05-16 18:39:08 GMT 32.909161 -97.082748 650 139 142 -576
2021-05-16 18:39:06 GMT 32.910172 -97.083771 650 138 141 -576
2021-05-16 18:39:05 GMT 32.910660 -97.084229 650 136 146 -576
2021-05-16 18:39:04 GMT 32.911652 -97.085350 675 140 141 -576
2021-05-16 18:39:02 GMT 32.912151 -97.085808 675 139 142 -576
2021-05-16 18:39:01 GMT 32.913120 -97.086823 700 139 143 -576
2021-05-16 18:38:59 GMT 32.913651 -97.087334 725 138 140 -576
2021-05-16 18:38:58 GMT 32.914101 -97.087761 725 137 148 -576
2021-05-16 18:38:57 GMT 32.915119 -97.088814 750 136 144 -576
2021-05-16 18:38:55 GMT 32.915588 -97.089401 775 139 141 -576
2021-05-16 18:38:54 GMT 32.916100 -97.089920 775 138 139 -576
2021-05-16 18:38:53 GMT 32.916580 -97.090401 800 138 140 -576
2021-05-16 18:38:51 GMT 32.917530 -97.091408 825 139 142 -576
2021-05-16 18:38:50 GMT 32.918049 -97.091957 900 139 137 -576
2021-05-16 18:38:49 GMT 32.918968 -97.092918 900 140 141 -576
2021-05-16 18:38:47 GMT 32.919479 -97.093384 900 139 142 -576
2021-05-16 18:38:46 GMT 32.920021 -97.093979 875 141 134 -576
2021-05-16 18:38:44 GMT 32.920929 -97.094803 900 137 146 -576
2021-05-16 18:38:43 GMT 32.921440 -97.095444 900 140 140 -576
2021-05-16 18:38:42 GMT 32.922470 -97.096451 950 139 132 -576
2021-05-16 18:38:40 GMT 32.922890 -97.096878 950 139 137 -576
2021-05-16 18:38:39 GMT 32.923389 -97.097412 950 140 133 -576
2021-05-16 18:38:37 GMT 32.924320 -97.098289 1,000 138 140 -576
2021-05-16 18:38:36 GMT 32.925282 -97.099350 1,050 140 140 -576
2021-05-16 18:38:34 GMT 32.925819 -97.099831 1,050 138 136 -576
2021-05-16 18:38:33 GMT 32.926281 -97.100288 1,050 138 139 -576
2021-05-16 18:38:31 GMT 32.927238 -97.101357 1,075 140 133 -576
2021-05-16 18:38:30 GMT 32.927731 -97.101822 1,075 139 132 -576
2021-05-16 18:38:29 GMT 32.928219 -97.102257 1,100 137 130 -576
2021-05-16 18:38:27 GMT 32.929089 -97.103218 1,125 140 136 -576
2021-05-16 18:38:26 GMT 32.929588 -97.103668 1,125 140 136 -576
2021-05-16 18:38:24 GMT 32.930561 -97.104599 1,150 138 137 -576
2021-05-16 18:38:23 GMT 32.931030 -97.105133 1,150 139 136 -576
2021-05-16 18:38:22 GMT 32.931511 -97.105690 1,200 140 133 -576
2021-05-16 18:38:21 GMT 32.931950 -97.106133 1,200 140 136 -576
2021-05-16 18:38:19 GMT 32.932919 -97.107079 1,200 139 134 -576
2021-05-16 18:38:18 GMT 32.933418 -97.107582 1,300 138 131 -576
2021-05-16 18:38:16 GMT 32.934319 -97.108498 1,300 138 131 -640
2021-05-16 18:38:15 GMT 32.934769 -97.108940 1,300 138 133 -640
2021-05-16 18:38:14 GMT 32.935719 -97.109962 1,275 138 127 -640
2021-05-16 18:38:12 GMT 32.936111 -97.110329 1,300 137 136 -640
2021-05-16 18:38:11 GMT 32.936520 -97.110802 1,300 138 140 -640
2021-05-16 18:38:09 GMT 32.937550 -97.111847 1,400 138 135 -640
2021-05-16 18:38:08 GMT 32.937962 -97.112350 1,400 139 139 -640
2021-05-16 18:38:07 GMT 32.938980 -97.113350 1,400 139 133 -640
2021-05-16 18:38:05 GMT 32.939461 -97.113823 1,400 138 133 -640
2021-05-16 18:38:03 GMT 32.940369 -97.114761 1,400 138 134 -640
2021-05-16 18:38:02 GMT 32.940819 -97.115250 1,400 138 135 -640
2021-05-16 18:38:01 GMT 32.941750 -97.116249 1,500 139 135 -640
2021-05-16 18:37:59 GMT 32.942211 -97.116730 1,500 139 136 -640
2021-05-16 18:37:58 GMT 32.942692 -97.117218 1,500 139 136 -640
2021-05-16 18:37:57 GMT 32.943649 -97.118179 1,500 139 139 -640
2021-05-16 18:37:55 GMT 32.944092 -97.118660 1,500 140 142 -640
2021-05-16 18:37:54 GMT 32.944592 -97.119179 1,500 140 142 -640
2021-05-16 18:37:53 GMT 32.945610 -97.120132 1,500 139 144 -640
2021-05-16 18:37:51 GMT 32.946121 -97.120682 1,600 140 142 -640
2021-05-16 18:37:50 GMT 32.946640 -97.121208 1,700 140 139 -640
2021-05-16 18:37:48 GMT 32.947620 -97.122139 1,700 139 144 -640
2021-05-16 18:37:47 GMT 32.948109 -97.122658 1,700 140 144 -640
2021-05-16 18:37:46 GMT 32.949169 -97.123680 1,700 138 143 -640
2021-05-16 18:37:44 GMT 32.949699 -97.124168 1,700 138 145 -640
2021-05-16 18:37:43 GMT 32.950180 -97.124672 1,700 138 148 -640
2021-05-16 18:37:42 GMT 32.950680 -97.125198 1,700 138 149 -640
2021-05-16 18:37:40 GMT 32.951740 -97.126297 1,800 137 151 -640
2021-05-16 18:37:38 GMT 32.952721 -97.127403 1,800 138 157 -640
2021-05-16 18:37:37 GMT 32.953251 -97.127953 1,800 138 159 -640
2021-05-16 18:37:36 GMT 32.954319 -97.129089 1,800 138 163 -640
2021-05-16 18:37:34 GMT 32.954861 -97.129623 1,800 138 167 -640
2021-05-16 18:37:33 GMT 32.956081 -97.130898 1,900 137 159 -640
2021-05-16 18:37:31 GMT 32.956669 -97.131508 1,900 137 158 -640
2021-05-16 18:37:30 GMT 32.957169 -97.132072 1,900 138 162 -640
2021-05-16 18:37:28 GMT 32.958271 -97.133247 1,900 138 167 -640
2021-05-16 18:37:27 GMT 32.958839 -97.133858 2,000 138 169 -640
2021-05-16 18:37:26 GMT 32.960018 -97.135071 2,000 138 172 -640
2021-05-16 18:37:24 GMT 32.960590 -97.135681 2,000 138 176 -640
2021-05-16 18:37:23 GMT 32.961170 -97.136292 2,000 139 179 -640
2021-05-16 18:37:22 GMT 32.961800 -97.136971 2,000 139 178 -640
2021-05-16 18:37:20 GMT 32.963032 -97.138199 2,000 138 183 -640
2021-05-16 18:37:19 GMT 32.963711 -97.138901 2,000 139 180 -640
2021-05-16 18:37:17 GMT 32.965012 -97.140213 2,100 139 180 -640
2021-05-16 18:37:16 GMT 32.965580 -97.140877 2,100 140 184 -1216
2021-05-16 18:37:15 GMT 32.966850 -97.142159 2,100 140 189 -1216
2021-05-16 18:37:13 GMT 32.967499 -97.142776 2,100 140 192 -1216
2021-05-16 18:37:05 GMT 32.973312 -97.148750 2,225 139 196 -1088
2021-05-16 18:36:56 GMT 32.979004 -97.154510 2,350 139 198 -1216
2021-05-16 18:36:52 GMT 32.981747 -97.157372 2,425 138 199 -1088
2021-05-16 18:36:46 GMT 32.986084 -97.161934 2,725 138 204 -1152
2021-05-16 18:36:43 GMT 32.988220 -97.164093 2,600 138 203 -896
2021-05-16 18:36:39 GMT 32.991486 -97.167534 2,650 138 204 -1152
2021-05-16 18:36:33 GMT 32.995667 -97.171829 2,775 138 206 -1088
2021-05-16 18:36:30 GMT 32.996784 -97.173004 2,800 138 206 -1216
2021-05-16 18:36:26 GMT 33.000732 -97.177094 2,900 138 209 -896
2021-05-16 18:36:21 GMT 33.003708 -97.180115 2,975 139 211 -960
2021-05-16 18:36:17 GMT 33.007118 -97.183655 3,050 139 213 -1216
2021-05-16 18:36:13 GMT 33.010254 -97.186874 3,125 139 214 -1152
2021-05-16 18:36:10 GMT 33.011635 -97.188255 3,175 139 214 -1344
2021-05-16 18:36:04 GMT 33.016296 -97.193024 3,275 139 215 -1216
2021-05-16 18:36:00 GMT 33.019501 -97.196327 3,375 138 216 -1280
2021-05-16 18:35:57 GMT 33.022530 -97.199463 3,450 138 217 -1152
2021-05-16 18:35:53 GMT 33.025131 -97.202087 3,525 139 216 -1216
2021-05-16 18:35:50 GMT 33.027416 -97.204453 3,600 139 217 -1344
2021-05-16 18:35:45 GMT 33.031540 -97.208733 3,725 139 218 -1216
2021-05-16 18:35:42 GMT 33.034164 -97.211403 3,800 138 219 -1216
2021-05-16 18:35:39 GMT 33.035202 -97.212471 3,800 138 219 -1216
2021-05-16 18:35:34 GMT 33.040100 -97.217575 3,925 138 219 -960
2021-05-16 18:35:30 GMT 33.043488 -97.221092 4,000 138 221 -1088
2021-05-16 18:35:21 GMT 33.049988 -97.227905 4,175 138 223 -1152
2021-05-16 18:35:18 GMT 33.051544 -97.229553 4,175 138 223 -1152
2021-05-16 18:35:11 GMT 33.059818 -97.238197 4,350 138 225 -960
2021-05-16 18:35:08 GMT 33.059818 -97.238197 4,375 139 226 -1088
2021-05-16 18:35:01 GMT 33.068195 -97.246658 4,500 139 229 -896
2021-05-16 18:34:58 GMT 33.068195 -97.246658 4,525 139 230 -832
2021-05-16 18:34:51 GMT 33.073784 -97.252266 4,625 139 233 -1088
2021-05-16 18:34:47 GMT 33.076904 -97.255424 4,675 139 234 -960
2021-05-16 18:34:40 GMT 33.082901 -97.261467 4,800 139 236 -832
2021-05-16 18:34:37 GMT 33.085747 -97.264320 4,850 139 236 -832
2021-05-16 18:34:29 GMT 33.092239 -97.270920 4,975 138 236 -640
2021-05-16 18:34:26 GMT 33.094406 -97.273117 5,000 138 236 -1152
2021-05-16 18:34:19 GMT 33.099991 -97.279060 5,150 138 238 -1344
2021-05-16 18:34:16 GMT 33.103180 -97.282394 5,225 138 240 -832
2021-05-16 18:34:08 GMT 33.109303 -97.289093 5,375 136 244 -384
2021-05-16 18:34:05 GMT 33.111786 -97.291847 5,400 136 245 -896
2021-05-16 18:33:58 GMT 33.120892 -97.302208 5,550 136 248 -1792
2021-05-16 18:33:55 GMT 33.120892 -97.302208 5,600 136 250 -1024
2021-05-16 18:33:48 GMT 33.125839 -97.307724 5,775 138 254 -832
2021-05-16 18:33:44 GMT 33.129505 -97.311684 5,775 138 254 -832
2021-05-16 18:33:37 GMT 33.136093 -97.318542 5,875 139 256 -1088
2021-05-16 18:33:34 GMT 33.138817 -97.321320 5,925 140 257 -1152
2021-05-16 18:33:29 GMT 33.143658 -97.325974 6,050 142 261 -1280
2021-05-16 18:33:25 GMT 33.146896 -97.328979 6,100 142 261 -1024
2021-05-16 18:33:22 GMT 33.150009 -97.331779 6,150 142 263 -1088
2021-05-16 18:33:18 GMT 33.154922 -97.336121 6,250 144 265 -960
2021-05-16 18:33:15 GMT 33.156738 -97.337662 6,275 144 267 -1152
2021-05-16 18:33:12 GMT 33.160355 -97.340736 6,350 145 268 -1088
2021-05-16 18:33:07 GMT 33.164932 -97.344414 6,475 146 270 -1408
2021-05-16 18:33:04 GMT 33.167404 -97.346451 6,475 146 270 -1408
2021-05-16 18:33:00 GMT 33.171616 -97.349800 6,575 145 271 -1024
2021-05-16 18:32:55 GMT 33.177383 -97.354630 6,775 144 274 -1792
2021-05-16 18:32:52 GMT 33.181503 -97.358200 6,850 142 274 -1728
2021-05-16 18:32:44 GMT 33.189697 -97.365944 7,100 140 276 -2112
2021-05-16 18:32:40 GMT 33.191849 -97.368149 7,175 138 276 -2112
2021-05-16 18:32:34 GMT 33.198124 -97.374855 7,425 144 274 -2048
2021-05-16 18:32:31 GMT 33.202011 -97.378311 7,525 148 273 -1984
2021-05-16 18:32:25 GMT 33.208740 -97.382370 7,725 159 271 -2112
2021-05-16 18:32:22 GMT 33.210663 -97.383141 7,800 164 271 -2240
2021-05-16 18:32:19 GMT 33.214321 -97.384155 7,900 170 269 -2240
2021-05-16 18:32:16 GMT 33.218792 -97.384827 8,100 179 267 -2304
2021-05-16 18:32:13 GMT 33.222977 -97.384842 8,175 183 266 -2176
2021-05-16 18:32:09 GMT 33.227173 -97.384659 8,300 184 265 -1920
2021-05-16 18:32:06 GMT 33.231129 -97.384323 8,400 184 265 -1984
2021-05-16 18:32:02 GMT 33.236298 -97.383965 8,525 184 265 -1920
2021-05-16 18:31:56 GMT 33.244171 -97.383415 9,400 184 268 -1152
2021-05-16 18:31:52 GMT 33.248402 -97.383148 8,825 184 269 -1408
2021-05-16 18:31:48 GMT 33.253380 -97.382759 8,900 184 269 -2048
2021-05-16 18:31:45 GMT 33.257126 -97.382538 9,000 184 269 -2304
2021-05-16 18:31:41 GMT 33.261902 -97.382195 9,100 184 272 -576
2021-05-16 18:31:37 GMT 33.267197 -97.381821 9,150 184 274 -192
2021-05-16 18:31:33 GMT 33.273582 -97.381470 9,275 183 277 -1984
2021-05-16 18:31:30 GMT 33.276192 -97.381355 9,325 183 277 -1856
2021-05-16 18:31:27 GMT 33.280014 -97.381111 9,425 183 278 -1856
2021-05-16 18:31:24 GMT 33.288528 -97.380623 9,550 183 281 -1728
2021-05-16 18:31:21 GMT 33.288528 -97.380623 9,625 183 278 -1792
2021-05-16 18:31:17 GMT 33.294209 -97.380287 9,750 183 279 -1856
2021-05-16 18:31:13 GMT 33.298599 -97.380066 9,850 183 280 -1920
2021-05-16 18:31:09 GMT 33.302494 -97.379784 10,075 183 281 -1728
2021-05-16 18:31:05 GMT 33.307434 -97.379517 10,075 183 281 -1856
2021-05-16 18:31:02 GMT 33.311600 -97.379295 10,175 183 281 -1728
2021-05-16 18:30:59 GMT 33.315529 -97.379112 10,275 183 282 -1664
2021-05-16 18:30:56 GMT 33.320744 -97.378830 10,375 183 283 -1664
2021-05-16 18:30:53 GMT 33.324978 -97.378609 10,450 183 284 -1600
2021-05-16 18:30:48 GMT 33.329681 -97.378326 10,550 184 285 -1664
2021-05-16 18:30:43 GMT 33.338154 -97.377823 10,700 183 287 -1344
2021-05-16 18:30:39 GMT 33.342682 -97.377541 10,850 183 289 -1280
2021-05-16 18:30:35 GMT 33.348907 -97.377205 10,875 183 291 -1280
2021-05-16 18:30:32 GMT 33.351883 -97.377045 10,925 183 293 -1280
2021-05-16 18:30:29 GMT 33.357006 -97.376762 11,000 183 294 -1280
2021-05-16 18:30:21 GMT 33.366364 -97.376251 11,175 183 298 -1344
2021-05-16 18:30:18 GMT 33.371346 -97.375977 11,325 184 300 -1088
2021-05-16 18:30:12 GMT 33.380840 -97.375298 11,375 184 305 -1152
2021-05-16 18:30:09 GMT 33.385071 -97.375015 11,500 184 307 -1152
2021-05-16 18:30:01 GMT 33.395370 -97.374298 11,575 183 312 -1344
2021-05-16 18:29:58 GMT 33.400589 -97.374023 11,750 183 314 -1536
2021-05-16 18:29:51 GMT 33.409927 -97.373421 11,825 185 316 -1856
2021-05-16 18:29:46 GMT 33.416931 -97.372543 11,975 190 316 -1984
2021-05-16 18:29:41 GMT 33.425205 -97.370087 12,175 200 315 -2048
2021-05-16 18:29:36 GMT 33.430344 -97.367599 12,375 210 314 -1984
2021-05-16 18:29:30 GMT 33.438400 -97.361938 12,525 217 315 -1984
2021-05-16 18:29:26 GMT 33.443081 -97.357254 12,650 226 314 -2048
2021-05-16 18:29:20 GMT 33.448807 -97.349350 12,875 237 314 -2048
2021-05-16 18:29:15 GMT 33.453182 -97.340324 13,075 245 314 -2112
2021-05-16 18:29:10 GMT 33.455566 -97.332825 13,225 254 314 -2112
2021-05-16 18:29:04 GMT 33.457169 -97.323982 13,400 265 315 -2112
2021-05-16 18:28:59 GMT 33.457603 -97.315994 13,650 273 316 -2112
2021-05-16 18:28:55 GMT 33.457123 -97.307999 13,750 280 316 -1920
2021-05-16 18:28:52 GMT 33.456345 -97.303162 13,825 282 317 -1984
2021-05-16 18:28:48 GMT 33.454952 -97.297447 13,925 291 317 -2048
2021-05-16 18:28:44 GMT 33.451401 -97.288162 14,125 302 317 -1984
2021-05-16 18:28:39 GMT 33.447269 -97.280968 14,275 309 316 -1600
2021-05-16 18:28:36 GMT 33.445362 -97.278275 14,375 316 316 -1856
2021-05-16 18:28:33 GMT 33.441422 -97.273605 14,450 321 314 -1920
2021-05-16 18:28:28 GMT 33.436752 -97.269379 14,575 328 315 -1856
2021-05-16 18:28:22 GMT 33.429348 -97.264542 14,750 339 315 -1664
2021-05-16 18:28:18 GMT 33.423019 -97.261742 14,875 347 317 -1216
2021-05-16 18:28:12 GMT 33.414078 -97.259666 14,950 357 320 64
2021-05-16 18:28:06 GMT 33.406677 -97.259384 14,950 3 323 0
2021-05-16 18:28:03 GMT 33.402466 -97.259766 14,950 7 325 -64
2021-05-16 18:28:00 GMT 33.397411 -97.260620 14,950 9 325 0
2021-05-16 18:27:57 GMT 33.391754 -97.261742 14,950 9 325 64
2021-05-16 18:27:54 GMT 33.386993 -97.262733 14,950 9 325 0
2021-05-16 18:27:51 GMT 33.378662 -97.264381 14,950 9 325 -64
2021-05-16 18:27:45 GMT 33.375092 -97.265091 14,950 9 326 0
2021-05-16 18:27:41 GMT 33.368500 -97.266464 14,950 9 328 0
2021-05-16 18:27:36 GMT 33.360405 -97.268127 14,950 10 331 64
2021-05-16 18:27:32 GMT 33.354630 -97.269379 14,950 10 333 64
2021-05-16 18:27:28 GMT 33.347946 -97.270805 14,950 10 335 0
2021-05-16 18:27:25 GMT 33.344238 -97.271576 14,900 10 350 -64
2021-05-16 18:27:20 GMT 33.336571 -97.273285 14,950 10 339 0
2021-05-16 18:27:17 GMT 33.331589 -97.274292 14,950 9 341 0
2021-05-16 18:27:14 GMT 33.326294 -97.275421 14,950 9 342 -64
2021-05-16 18:27:10 GMT 33.319382 -97.276848 14,950 9 343 0
2021-05-16 18:27:05 GMT 33.313751 -97.278000 14,950 9 345 0
2021-05-16 18:27:02 GMT 33.307709 -97.279228 14,950 9 349 0
2021-05-16 18:26:56 GMT 33.297558 -97.281303 14,950 9 349 -64
2021-05-16 18:26:53 GMT 33.293381 -97.282181 14,950 10 350 -64
2021-05-16 18:26:49 GMT 33.286667 -97.283546 14,950 10 350 0
2021-05-16 18:26:45 GMT 33.281250 -97.284706 14,950 9 351 64
2021-05-16 18:26:41 GMT 33.273865 -97.286232 14,950 9 351 64
2021-05-16 18:26:38 GMT 33.270000 -97.287018 14,950 9 352 0
2021-05-16 18:26:33 GMT 33.260967 -97.288872 14,950 9 353 -64
2021-05-16 18:26:30 GMT 33.252869 -97.290527 14,950 10 356 64
2021-05-16 18:26:27 GMT 33.252869 -97.290527 14,950 9 355 0
2021-05-16 18:26:23 GMT 33.246368 -97.291847 14,950 10 355 64
2021-05-16 18:26:20 GMT 33.240856 -97.293076 14,950 10 358 192
2021-05-16 18:26:17 GMT 33.235977 -97.294098 14,950 10 357 64
2021-05-16 18:26:14 GMT 33.231083 -97.295143 14,950 10 358 256
2021-05-16 18:26:10 GMT 33.223866 -97.296715 14,925 10 360 192
2021-05-16 18:26:06 GMT 33.219257 -97.297722 14,925 10 361 320
2021-05-16 18:26:03 GMT 33.214325 -97.298767 14,900 10 362 384
2021-05-16 18:26:00 GMT 33.208038 -97.300079 14,725 9 364 1536
2021-05-16 18:25:57 GMT 33.202080 -97.301315 14,850 9 362 768
2021-05-16 18:25:52 GMT 33.189789 -97.303818 14,700 9 364 1536
2021-05-16 18:25:46 GMT 33.184811 -97.304901 14,625 9 364 1536
2021-05-16 18:25:42 GMT 33.178150 -97.306244 14,525 9 363 1472
2021-05-16 18:25:39 GMT 33.173496 -97.307251 14,400 10 363 1472
2021-05-16 18:25:36 GMT 33.166885 -97.308655 14,350 10 363 1408
2021-05-16 18:25:32 GMT 33.159897 -97.310135 14,250 10 362 1408
2021-05-16 18:25:28 GMT 33.150009 -97.312225 13,950 10 361 1408
2021-05-16 18:25:25 GMT 33.150009 -97.312225 14,100 10 362 1408
2021-05-16 18:25:21 GMT 33.143372 -97.313652 14,000 10 361 1408
2021-05-16 18:25:18 GMT 33.137421 -97.314919 13,925 10 361 1408
2021-05-16 18:25:15 GMT 33.133137 -97.315773 13,850 10 360 1408
2021-05-16 18:25:11 GMT 33.125919 -97.317345 13,750 10 359 1472
2021-05-16 18:25:07 GMT 33.120659 -97.318466 13,625 10 359 1472
2021-05-16 18:25:04 GMT 33.115768 -97.319588 13,600 10 359 1472
2021-05-16 18:24:59 GMT 33.108536 -97.321236 13,425 10 358 1536
2021-05-16 18:24:56 GMT 33.103317 -97.322388 13,425 10 358 1536
2021-05-16 18:24:52 GMT 33.095535 -97.324142 13,275 10 357 1472
2021-05-16 18:24:44 GMT 33.081894 -97.327225 13,075 10 355 1664
2021-05-16 18:24:39 GMT 33.074799 -97.328873 12,950 10 354 1536
2021-05-16 18:24:36 GMT 33.069920 -97.330009 12,025 9 343 1088
2021-05-16 18:24:32 GMT 33.064453 -97.331284 12,800 11 353 1472
2021-05-16 18:24:28 GMT 33.057720 -97.332809 12,700 10 352 1536
2021-05-16 18:24:24 GMT 33.049713 -97.334641 12,525 10 350 1472
2021-05-16 18:24:21 GMT 33.044315 -97.335838 12,500 10 349 1472
2021-05-16 18:24:14 GMT 33.035706 -97.337715 12,350 10 347 1408
2021-05-16 18:24:11 GMT 33.031265 -97.338699 12,300 10 346 1408
2021-05-16 18:24:05 GMT 33.019596 -97.341164 12,125 9 343 1088
2021-05-16 18:24:02 GMT 33.014877 -97.342110 12,075 9 342 1088
2021-05-16 18:23:59 GMT 33.012054 -97.342621 12,050 8 341 1024
2021-05-16 18:23:56 GMT 33.007072 -97.343575 12,000 8 339 1024
2021-05-16 18:23:53 GMT 33.000549 -97.344688 11,925 7 335 1024
2021-05-16 18:23:49 GMT 32.995296 -97.345482 11,875 6 335 1088
2021-05-16 18:23:41 GMT 32.982101 -97.346939 11,725 3 328 1088
2021-05-16 18:23:38 GMT 32.979980 -97.347107 11,700 2 327 1024
2021-05-16 18:23:35 GMT 32.974228 -97.347435 11,600 0 324 1088
2021-05-16 18:23:32 GMT 32.969421 -97.347488 11,575 0 322 1152
2021-05-16 18:23:29 GMT 32.966446 -97.347435 11,525 359 321 1152
2021-05-16 18:23:26 GMT 32.961964 -97.347160 11,475 339 301 1472
2021-05-16 18:23:21 GMT 32.952652 -97.345871 11,350 349 313 1088
2021-05-16 18:23:18 GMT 32.950058 -97.345291 11,300 347 312 1088
2021-05-16 18:23:14 GMT 32.943714 -97.343071 11,125 339 306 1472
2021-05-16 18:23:11 GMT 32.936314 -97.339653 11,125 338 305 1536
2021-05-16 18:23:08 GMT 32.926163 -97.334801 10,875 338 304 1600
2021-05-16 18:23:01 GMT 32.926163 -97.334801 10,850 339 301 1536
2021-05-16 18:22:58 GMT 32.922768 -97.333206 10,225 339 286 1664
2021-05-16 18:22:52 GMT 32.914993 -97.329735 10,650 340 296 1600
2021-05-16 18:22:48 GMT 32.908848 -97.326927 10,525 339 294 1600
2021-05-16 18:22:45 GMT 32.904797 -97.325081 10,225 339 286 1664
2021-05-16 18:22:40 GMT 32.895950 -97.320961 10,300 339 290 1600
2021-05-16 18:22:37 GMT 32.895950 -97.320961 10,275 339 289 1536
2021-05-16 18:22:31 GMT 32.888535 -97.317497 10,100 339 285 1664
2021-05-16 18:22:28 GMT 32.884827 -97.315773 10,025 339 285 1728
2021-05-16 18:22:25 GMT 32.881119 -97.314095 9,925 339 284 1920
2021-05-16 18:22:21 GMT 32.871651 -97.309555 9,800 339 284 1984
2021-05-16 18:22:18 GMT 32.871651 -97.309555 9,675 338 284 1984
2021-05-16 18:22:15 GMT 32.868671 -97.308151 9,600 338 285 1856
2021-05-16 18:22:10 GMT 32.862534 -97.305138 9,425 338 286 1920
2021-05-16 18:22:06 GMT 32.857826 -97.302879 9,325 338 287 1792
2021-05-16 18:22:00 GMT 32.849400 -97.298843 9,125 339 291 1216
2021-05-16 18:21:55 GMT 32.843628 -97.296074 9,050 339 291 960
2021-05-16 18:21:50 GMT 32.837341 -97.293129 8,975 339 293 896
2021-05-16 18:21:46 GMT 32.832783 -97.291054 8,900 339 294 960
2021-05-16 18:21:43 GMT 32.829483 -97.289536 8,875 339 294 960
2021-05-16 18:21:40 GMT 32.826122 -97.288025 8,850 339 295 1024
2021-05-16 18:21:37 GMT 32.820740 -97.285583 8,750 339 297 960
2021-05-16 18:21:34 GMT 32.816620 -97.283661 8,725 339 296 1024
2021-05-16 18:21:28 GMT 32.810486 -97.280861 8,625 339 292 1024
2021-05-16 18:21:25 GMT 32.806961 -97.279213 8,575 339 289 1024
2021-05-16 18:21:22 GMT 32.803223 -97.277435 8,525 339 288 1024
2021-05-16 18:21:19 GMT 32.798035 -97.275040 8,475 339 285 1024
2021-05-16 18:21:15 GMT 32.792885 -97.272614 8,400 339 283 1088
2021-05-16 18:21:12 GMT 32.789703 -97.271133 8,350 339 281 1088
2021-05-16 18:21:08 GMT 32.780876 -97.266785 8,200 336 277 1728
2021-05-16 18:21:05 GMT 32.780876 -97.266785 8,125 333 275 1792
2021-05-16 18:21:02 GMT 32.778130 -97.265099 8,100 330 273 1856
2021-05-16 18:20:56 GMT 32.772728 -97.260727 7,925 320 270 2112
2021-05-16 18:20:52 GMT 32.767914 -97.255203 7,725 310 266 2496
2021-05-16 18:20:47 GMT 32.764984 -97.250534 7,400 265 261 1216
2021-05-16 18:20:44 GMT 32.763000 -97.246208 7,400 292 260 2112
2021-05-16 18:20:41 GMT 32.761696 -97.242516 7,325 287 260 2240
2021-05-16 18:20:37 GMT 32.760487 -97.236961 7,000 265 261 1216
2021-05-16 18:20:31 GMT 32.760906 -97.221153 6,975 259 255 -192
2021-05-16 18:20:27 GMT 32.760906 -97.221153 6,975 259 255 -192
2021-05-16 18:20:22 GMT 32.762054 -97.214890 6,975 258 254 -64
2021-05-16 18:20:17 GMT 32.765869 -97.208801 6,700 261 247 928
2021-05-16 18:20:16 GMT 32.766232 -97.206123 6,700 261 247 928
2021-05-16 18:20:14 GMT 32.766411 -97.204781 6,700 261 247 928
2021-05-16 18:20:13 GMT 32.766590 -97.203453 6,700 261 247 928
2021-05-16 18:20:12 GMT 32.766960 -97.200768 6,700 261 247 928
2021-05-16 18:20:10 GMT 32.767139 -97.199432 6,700 261 247 928
2021-05-16 18:20:09 GMT 32.767319 -97.198090 6,700 261 247 928
2021-05-16 18:20:07 GMT 32.767689 -97.195412 6,700 261 247 928
2021-05-16 18:20:06 GMT 32.767872 -97.194077 6,700 261 247 928
2021-05-16 18:20:04 GMT 32.768230 -97.191399 6,700 261 247 928
2021-05-16 18:20:03 GMT 32.768410 -97.190063 6,700 261 247 928
2021-05-16 18:20:01 GMT 32.768780 -97.187378 6,700 261 247 928
2021-05-16 18:19:59 GMT 32.769138 -97.184708 6,700 261 247 928
2021-05-16 18:19:58 GMT 32.769321 -97.183372 6,700 261 247 928
2021-05-16 18:19:56 GMT 32.769691 -97.180687 6,700 261 247 928
2021-05-16 18:19:55 GMT 32.769871 -97.179352 6,700 261 247 928
2021-05-16 18:19:54 GMT 32.770229 -97.176666 6,700 261 247 928
2021-05-16 18:19:52 GMT 32.770409 -97.175339 6,700 261 247 928
2021-05-16 18:19:51 GMT 32.770599 -97.174004 6,700 261 247 928
2021-05-16 18:19:50 GMT 32.770962 -97.171318 6,700 261 247 928
2021-05-16 18:19:48 GMT 32.771141 -97.169983 6,700 261 247 928
2021-05-16 18:19:47 GMT 32.771320 -97.168640 6,700 261 247 928
2021-05-16 18:19:46 GMT 32.771511 -97.167297 6,700 261 247 928
2021-05-16 18:19:44 GMT 32.772179 -97.164993 6,600 262 252 928
2021-05-16 18:19:42 GMT 32.772491 -97.162247 6,600 262 252 928
2021-05-16 18:19:41 GMT 32.773289 -97.161118 6,500 264 250 928
2021-05-16 18:19:40 GMT 32.773499 -97.158386 6,500 264 250 928
2021-05-16 18:19:38 GMT 32.773609 -97.157021 6,500 264 250 928
2021-05-16 18:19:37 GMT 32.774139 -97.154709 6,100 262 254 928
2021-05-16 18:19:35 GMT 32.774269 -97.153328 6,100 262 254 928
2021-05-16 18:19:33 GMT 32.774639 -97.149300 6,100 259 250 928
2021-05-16 18:19:31 GMT 32.774818 -97.147942 6,100 259 250 928
2021-05-16 18:19:29 GMT 32.775188 -97.145233 6,100 259 250 928
2021-05-16 18:19:28 GMT 32.775372 -97.143867 6,100 259 250 928
2021-05-16 18:19:26 GMT 32.775700 -97.141220 5,900 255 246 928
2021-05-16 18:19:25 GMT 32.775959 -97.139900 5,900 255 246 928
2021-05-16 18:19:24 GMT 32.776218 -97.138588 5,900 255 246 928
2021-05-16 18:19:22 GMT 32.776169 -97.135521 5,600 244 236 3136
2021-05-16 18:19:20 GMT 32.777039 -97.133141 5,600 244 236 3136
2021-05-16 18:19:19 GMT 32.776920 -97.131699 5,600 238 239 3136
2021-05-16 18:19:18 GMT 32.777119 -97.129921 5,600 232 229 3136
2021-05-16 18:19:16 GMT 32.778339 -97.127861 5,600 232 229 3136
2021-05-16 18:19:15 GMT 32.778950 -97.126823 5,600 232 229 3136
2021-05-16 18:19:14 GMT 32.779060 -97.125572 5,600 227 236 3136
2021-05-16 18:19:12 GMT 32.780170 -97.122948 5,400 221 228 3136
2021-05-16 18:19:10 GMT 32.781712 -97.121231 5,400 221 228 3136
2021-05-16 18:19:09 GMT 32.782101 -97.120140 5,300 217 235 3136
2021-05-16 18:19:08 GMT 32.783630 -97.117989 5,200 212 229 3136
2021-05-16 18:19:06 GMT 32.784512 -97.117279 5,200 212 229 3136
2021-05-16 18:19:05 GMT 32.784870 -97.116089 5,100 208 236 3136
2021-05-16 18:19:03 GMT 32.786781 -97.114532 5,000 207 232 3136
2021-05-16 18:19:01 GMT 32.788689 -97.113350 5,000 207 232 3136
2021-05-16 18:19:00 GMT 32.789532 -97.112679 5,000 207 234 3136
2021-05-16 18:18:59 GMT 32.790451 -97.111862 4,700 206 233 3136
2021-05-16 18:18:57 GMT 32.792381 -97.110718 4,700 206 233 3136
2021-05-16 18:18:56 GMT 32.793369 -97.110123 4,700 206 230 3136
2021-05-16 18:18:55 GMT 32.795158 -97.108856 4,700 205 233 3136
2021-05-16 18:18:53 GMT 32.796131 -97.108307 4,700 205 233 3136
2021-05-16 18:18:52 GMT 32.797112 -97.107758 4,700 205 233 3136
2021-05-16 18:18:51 GMT 32.797909 -97.107147 4,600 204 237 3136
2021-05-16 18:18:49 GMT 32.800049 -97.106102 4,500 205 229 3136
2021-05-16 18:18:47 GMT 32.801960 -97.105011 4,500 205 229 3136
2021-05-16 18:18:46 GMT 32.802769 -97.104408 4,500 205 233 3136
2021-05-16 18:18:45 GMT 32.804821 -97.103447 4,300 207 226 3136
2021-05-16 18:18:43 GMT 32.805759 -97.102890 4,300 207 226 3136
2021-05-16 18:18:42 GMT 32.806870 -97.102379 4,300 208 216 3136
2021-05-16 18:18:40 GMT 32.808922 -97.101273 4,200 208 210 3136
2021-05-16 18:18:39 GMT 32.809780 -97.100723 4,200 208 210 3136
2021-05-16 18:18:38 GMT 32.810631 -97.100166 4,200 208 210 3136
2021-05-16 18:18:36 GMT 32.812778 -97.098869 3,800 209 195 3136
2021-05-16 18:18:34 GMT 32.814362 -97.097839 3,800 209 195 3136
2021-05-16 18:18:33 GMT 32.815060 -97.097328 3,800 208 199 3136
2021-05-16 18:18:31 GMT 32.816830 -97.096237 3,800 209 198 3136
2021-05-16 18:18:29 GMT 32.818432 -97.095177 3,800 209 198 3136
2021-05-16 18:18:28 GMT 32.819000 -97.094749 3,700 209 215 3136
2021-05-16 18:18:26 GMT 32.820709 -97.093628 3,500 209 217 3136
2021-05-16 18:18:25 GMT 32.821590 -97.093048 3,500 209 217 3136
2021-05-16 18:18:24 GMT 32.822498 -97.092461 3,500 209 215 3136
2021-05-16 18:18:23 GMT 32.824139 -97.091362 3,300 209 226 704
2021-05-16 18:18:21 GMT 32.825050 -97.090782 3,300 209 227 704
2021-05-16 18:18:20 GMT 32.825989 -97.090179 3,300 210 227 704
2021-05-16 18:18:18 GMT 32.827751 -97.088959 3,100 210 231 704
2021-05-16 18:18:17 GMT 32.829620 -97.087708 3,100 210 229 704
2021-05-16 18:18:15 GMT 32.830631 -97.087021 3,100 210 220 704
2021-05-16 18:18:13 GMT 32.832371 -97.085793 2,900 209 223 704
2021-05-16 18:18:12 GMT 32.834190 -97.084549 2,900 208 220 704
2021-05-16 18:18:10 GMT 32.835060 -97.084000 2,900 208 221 704
2021-05-16 18:18:09 GMT 32.835918 -97.083420 2,825 208 225 704
2021-05-16 18:18:07 GMT 32.837791 -97.082237 2,825 208 221 704
2021-05-16 18:18:06 GMT 32.838699 -97.081650 2,800 208 220 704
2021-05-16 18:18:05 GMT 32.840519 -97.080452 2,700 206 216 704
2021-05-16 18:18:03 GMT 32.841450 -97.079910 2,700 207 213 704
2021-05-16 18:18:02 GMT 32.842339 -97.079361 2,700 207 211 704
2021-05-16 18:18:00 GMT 32.844002 -97.078293 2,500 206 218 704
2021-05-16 18:17:59 GMT 32.844891 -97.077751 2,500 206 217 704
2021-05-16 18:17:57 GMT 32.846748 -97.076653 2,500 207 208 704
2021-05-16 18:17:56 GMT 32.847561 -97.076157 2,500 207 214 -128
2021-05-16 18:17:55 GMT 32.848450 -97.075623 2,500 207 212 -128
2021-05-16 18:17:53 GMT 32.850250 -97.074532 2,500 207 204 2016
2021-05-16 18:17:52 GMT 32.851120 -97.073997 2,500 207 201 2016
2021-05-16 18:17:51 GMT 32.851898 -97.073502 2,400 206 207 2016
2021-05-16 18:17:49 GMT 32.853611 -97.072472 2,400 207 204 2016
2021-05-16 18:17:48 GMT 32.854462 -97.071968 2,400 207 202 2016
2021-05-16 18:17:47 GMT 32.855309 -97.071426 2,400 207 197 2016
2021-05-16 18:17:45 GMT 32.856972 -97.070442 2,275 207 196 2016
2021-05-16 18:17:44 GMT 32.857800 -97.069901 2,275 207 192 2016
2021-05-16 18:17:43 GMT 32.859390 -97.068916 2,200 207 189 2016
2021-05-16 18:17:41 GMT 32.860111 -97.068481 2,100 207 195 2016
2021-05-16 18:17:40 GMT 32.860950 -97.067932 2,100 206 191 2016
2021-05-16 18:17:39 GMT 32.862541 -97.066948 2,100 206 187 2016
2021-05-16 18:17:37 GMT 32.863289 -97.066498 2,000 206 188 2016
2021-05-16 18:17:35 GMT 32.864830 -97.065582 2,000 207 186 2016
2021-05-16 18:17:34 GMT 32.865582 -97.065117 2,000 207 187 2016
2021-05-16 18:17:33 GMT 32.867100 -97.064178 1,950 208 184 2016
2021-05-16 18:17:31 GMT 32.867870 -97.063721 1,950 208 182 2016
2021-05-16 18:17:30 GMT 32.868610 -97.063232 1,900 209 181 2016
2021-05-16 18:17:28 GMT 32.870079 -97.062309 1,850 209 177 2016
2021-05-16 18:17:27 GMT 32.870781 -97.061829 1,850 209 178 2016
2021-05-16 18:17:26 GMT 32.872250 -97.060837 1,775 210 168 2016
2021-05-16 18:17:24 GMT 32.872910 -97.060333 1,775 208 166 2016
2021-05-16 18:17:23 GMT 32.873550 -97.059937 1,550 209 174 2016
2021-05-16 18:17:21 GMT 32.874962 -97.058983 1,550 209 169 -384
2021-05-16 18:17:20 GMT 32.875660 -97.058517 1,550 209 167 -384
2021-05-16 18:17:18 GMT 32.876999 -97.057610 1,550 207 166 -384
2021-05-16 18:17:17 GMT 32.877701 -97.057220 1,525 208 165 -384
2021-05-16 18:17:15 GMT 32.879040 -97.056297 1,400 206 161 -384
2021-05-16 18:17:14 GMT 32.879711 -97.055931 1,400 206 163 -384
2021-05-16 18:17:13 GMT 32.881062 -97.055130 1,350 207 162 -384
2021-05-16 18:17:11 GMT 32.881699 -97.054741 1,350 207 166 -384
2021-05-16 18:17:10 GMT 32.882408 -97.054352 1,225 207 163 -384
2021-05-16 18:17:08 GMT 32.883751 -97.053558 1,225 206 162 -384
2021-05-16 18:17:07 GMT 32.884430 -97.053177 1,025 205 162 -384
2021-05-16 18:17:06 GMT 32.885090 -97.052811 1,025 204 163 -384
2021-05-16 18:17:04 GMT 32.886459 -97.052109 1,025 200 160 -384
2021-05-16 18:17:03 GMT 32.887119 -97.051758 1,025 197 161 -384
2021-05-16 18:17:02 GMT 32.888531 -97.051231 1,025 191 157 -384
2021-05-16 18:17:00 GMT 32.889221 -97.050980 1,000 187 156 -384
2021-05-16 18:16:58 GMT 32.890652 -97.050697 950 182 154 -384
2021-05-16 18:16:57 GMT 32.891380 -97.050652 925 180 151 -384
2021-05-16 18:16:56 GMT 32.892101 -97.050591 875 178 146 -384
2021-05-16 18:16:54 GMT 32.893440 -97.050629 850 178 151 -384
2021-05-16 18:16:53 GMT 32.894150 -97.050621 800 177 146 -384
2021-05-16 18:16:52 GMT 32.895512 -97.050690 750 178 149 -384
2021-05-16 18:16:50 GMT 32.896198 -97.050713 700 178 149 -384
2021-05-16 18:16:49 GMT 32.896919 -97.050728 675 178 142 -384
2021-05-16 18:16:47 GMT 32.898201 -97.050774 625 179 151 -384
2021-05-16 18:16:46 GMT 32.898880 -97.050781 600 179 151 -384
2021-05-16 18:16:44 GMT 32.900249 -97.050812 550 180 147 -384
2021-05-16 18:16:43 GMT 32.900940 -97.050819 550 180 144 -384
2021-05-16 18:16:42 GMT 32.901581 -97.050827 575 181 143 -384
2021-05-16 18:16:40 GMT 32.902908 -97.050797 575 180 132 -384
2021-05-16 18:16:39 GMT 32.903519 -97.050781 575 180 130 -384
2021-05-16 18:16:38 GMT 32.904121 -97.050781 0 180 127 -384
2021-05-16 18:16:36 GMT 32.905289 -97.050758 0 179 121 0
2021-05-16 18:16:35 GMT 32.905842 -97.050758 0 179 119 0
2021-05-16 18:16:33 GMT 32.906929 -97.050781 0 180 112 0
2021-05-16 18:16:32 GMT 32.907471 -97.050758 0 180 106 0
2021-05-16 18:16:30 GMT 32.908451 -97.050758 0 179 99 0
2021-05-16 18:16:29 GMT 32.908909 -97.050758 0 179 95 0
2021-05-16 18:16:27 GMT 32.909771 -97.050774 0 180 87 0
2021-05-16 18:16:26 GMT 32.910179 -97.050774 0 180 82 0
2021-05-16 18:16:24 GMT 32.910938 -97.050751 0 180 73 0
2021-05-16 18:16:23 GMT 32.911598 -97.050743 0 179 64 0
2021-05-16 18:16:21 GMT 32.911900 -97.050774 0 181 60 0
2021-05-16 18:16:20 GMT 32.912182 -97.050751 0 181 54 0
2021-05-16 18:16:19 GMT 32.912689 -97.050743 0 181 45 0
2021-05-16 18:16:17 GMT 32.912930 -97.050728 0 179 37 0
2021-05-16 18:16:15 GMT 32.913300 -97.050743 0 180 26 0
2021-05-16 18:16:14 GMT 32.913448 -97.050720 0 177 21 0
2021-05-16 18:16:13 GMT 32.913582 -97.050728 0 178 16 0
2021-05-16 18:16:11 GMT 32.913769 -97.050728 0 176 8 0
2021-05-16 18:16:10 GMT 32.913841 -97.050743 0 182 5 0
2021-05-16 18:16:09 GMT 32.913879 -97.050743 0 179 2 0
2021-05-16 18:16:07 GMT 32.913910 -97.050758 0 179 3 0
2021-05-16 18:16:06 GMT 32.913921 -97.050758 0 179 3 0
2021-05-16 18:16:05 GMT 32.913921 -97.050728 0 179 1 0
2021-05-16 18:16:04 GMT 32.913929 -97.050720 0 179 1 0
2021-05-16 18:16:02 GMT 32.913940 -97.050743 0 179 1 0
2021-05-16 18:16:01 GMT 32.913921 -97.050720 0 179 0 0
2021-05-16 18:16:00 GMT 32.913940 -97.050728 0 179 1 0
2021-05-16 18:15:58 GMT 32.913910 -97.050697 0 179 2 0
2021-05-16 18:15:57 GMT 32.913960 -97.050743 0 179 3 0
2021-05-16 18:15:55 GMT 32.913929 -97.050728 0 179 1 0
2021-05-16 18:15:54 GMT 32.913921 -97.050728 0 179 1 0
2021-05-16 18:15:52 GMT 32.913929 -97.050720 0 179 1 0
2021-05-16 18:15:51 GMT 32.913921 -97.050697 0 178 2 0
2021-05-16 18:15:50 GMT 32.913910 -97.050728 0 176 3 0
2021-05-16 18:15:48 GMT 32.913921 -97.050743 0 172 2 0
2021-05-16 18:15:47 GMT 32.913940 -97.050728 0 177 6 0
2021-05-16 18:15:45 GMT 32.913952 -97.050743 0 189 7 0
2021-05-16 18:15:43 GMT 32.914021 -97.050743 0 197 7 0
2021-05-16 18:15:42 GMT 32.914028 -97.050743 0 214 8 0
2021-05-16 18:15:41 GMT 32.914082 -97.050758 0 224 7 0
2021-05-16 18:15:39 GMT 32.914139 -97.050697 0 251 5 0
2021-05-16 18:15:38 GMT 32.914181 -97.050690 0 261 7 0
2021-05-16 18:15:37 GMT 32.914200 -97.050629 0 271 8 0
2021-05-16 18:15:35 GMT 32.914200 -97.050591 0 270 9 0
2021-05-16 18:15:34 GMT 32.914200 -97.050507 0 271 13 0
2021-05-16 18:15:32 GMT 32.914188 -97.050430 0 268 13 0
2021-05-16 18:15:31 GMT 32.914211 -97.050346 0 275 12 0
2021-05-16 18:15:29 GMT 32.914200 -97.050262 0 274 15 0
2021-05-16 18:15:28 GMT 32.914200 -97.050171 0 275 15 0
2021-05-16 18:15:26 GMT 32.914162 -97.049973 0 267 10 0
2021-05-16 18:15:25 GMT 32.914162 -97.049927 0 268 10 0
2021-05-16 18:15:23 GMT 32.914200 -97.049828 0 273 8 0
2021-05-16 18:15:22 GMT 32.914200 -97.049759 0 273 6 0
2021-05-16 18:15:20 GMT 32.914181 -97.049591 0 270 1 0
2021-05-16 18:15:18 GMT 32.914181 -97.049591 0 270 1 0
2021-05-16 18:15:16 GMT 32.914181 -97.049583 0 270 1 0
2021-05-16 18:15:13 GMT 32.914169 -97.049538 0 270 0 0
2021-05-16 18:15:12 GMT 32.914169 -97.049553 0 270 0 0
2021-05-16 18:15:11 GMT 32.914181 -97.049583 0 270 1 0
2021-05-16 18:15:09 GMT 32.914181 -97.049583 0 270 1 0
2021-05-16 18:15:08 GMT 32.914181 -97.049561 0 270 0 0
2021-05-16 18:14:59 GMT 32.914188 -97.049538 0 270 0 0
2021-05-16 18:14:54 GMT 32.914188 -97.049553 0 270 0 0
2021-05-16 18:14:52 GMT 32.914200 -97.049561 0 270 0 0
2021-05-16 18:14:51 GMT 32.914188 -97.049522 0 270 0 0
2021-05-16 18:14:49 GMT 32.914181 -97.049553 0 270 0 0
2021-05-16 18:14:47 GMT 32.914181 -97.049561 0 270 0 0
2021-05-16 18:14:42 GMT 32.914169 -97.049553 0 270 0 0
2021-05-16 18:14:39 GMT 32.914181 -97.049538 0 270 0 0
2021-05-16 18:14:37 GMT 32.914188 -97.049553 0 270 0 0
2021-05-16 18:14:36 GMT 32.914188 -97.049530 0 270 0 0
2021-05-16 18:14:35 GMT 32.914181 -97.049553 0 270 0 0
2021-05-16 18:14:32 GMT 32.914181 -97.049561 0 270 0 0
2021-05-16 18:14:29 GMT 32.914169 -97.049568 0 270 1 0
2021-05-16 18:14:27 GMT 32.914188 -97.049553 0 270 0 0
2021-05-16 18:14:25 GMT 32.914169 -97.049561 0 270 0 0
2021-05-16 18:14:24 GMT 32.914181 -97.049538 0 270 0 0
2021-05-16 18:14:22 GMT 32.914188 -97.049538 0 270 0 0
2021-05-16 18:14:21 GMT 32.914181 -97.049530 0 270 0 0
2021-05-16 18:14:20 GMT 32.914181 -97.049553 0 270 0 0
2021-05-16 18:14:17 GMT 32.914181 -97.049553 0 270 0 0
2021-05-16 18:14:15 GMT 32.914181 -97.049583 0 270 2 0
2021-05-16 18:14:12 GMT 32.914162 -97.049530 0 270 0 0
2021-05-16 18:14:10 GMT 32.914162 -97.049538 0 270 0 0
2021-05-16 18:14:08 GMT 32.914169 -97.049538 0 270 0 0
2021-05-16 18:14:06 GMT 32.914169 -97.049553 0 270 0 0
2021-05-16 18:14:05 GMT 32.914169 -97.049538 0 270 0 0
2021-05-16 18:14:03 GMT 32.914169 -97.049553 0 270 0 0
2021-05-16 18:14:02 GMT 32.914181 -97.049561 0 270 0 0
2021-05-16 18:13:59 GMT 32.914181 -97.049568 0 270 0 0
2021-05-16 18:13:56 GMT 32.914188 -97.049561 0 270 0 0
2021-05-16 18:13:55 GMT 32.914181 -97.049522 0 270 0 0
2021-05-16 18:13:52 GMT 32.914169 -97.049538 0 270 0 0
2021-05-16 18:13:51 GMT 32.914181 -97.049530 0 270 0 0
2021-05-16 18:13:47 GMT 32.914169 -97.049553 0 270 0 0
2021-05-16 18:13:46 GMT 32.914169 -97.049538 0 270 0 0
2021-05-16 18:13:43 GMT 32.914162 -97.049553 0 270 0 0
2021-05-16 18:13:42 GMT 32.914169 -97.049530 0 270 0 0
2021-05-16 18:13:41 GMT 32.914181 -97.049500 0 270 0 0
2021-05-16 18:13:40 GMT 32.914200 -97.049500 0 270 0 0
2021-05-16 18:13:38 GMT 32.914200 -97.049500 0 270 0 0
2021-05-16 18:13:36 GMT 32.914200 -97.049507 0 270 0 0
2021-05-16 18:13:35 GMT 32.914200 -97.049538 0 270 0 0
2021-05-16 18:13:33 GMT 32.914188 -97.049553 0 270 0 0
2021-05-16 18:13:31 GMT 32.914181 -97.049530 0 270 0 0
2021-05-16 18:13:30 GMT 32.914181 -97.049553 0 270 0 0
2021-05-16 18:13:27 GMT 32.914181 -97.049561 0 270 0 0
2021-05-16 18:13:26 GMT 32.914181 -97.049583 0 270 0 0
2021-05-16 18:13:24 GMT 32.914188 -97.049530 0 270 0 0
2021-05-16 18:13:20 GMT 32.914188 -97.049538 0 270 0 0
2021-05-16 18:13:19 GMT 32.914200 -97.049530 0 270 0 0
2021-05-16 18:13:17 GMT 32.914188 -97.049500 0 270 0 0
2021-05-16 18:13:16 GMT 32.914188 -97.049492 0 270 0 0
2021-05-16 18:13:15 GMT 32.914188 -97.049522 0 270 0 0
2021-05-16 18:13:12 GMT 32.914181 -97.049522 0 270 0 0
2021-05-16 18:13:11 GMT 32.914162 -97.049477 0 270 0 0
2021-05-16 18:13:09 GMT 32.914150 -97.049492 0 270 1 0
2021-05-16 18:13:05 GMT 32.914181 -97.049538 0 270 0 0
2021-05-16 18:13:02 GMT 32.914169 -97.049553 0 270 0 0
2021-05-16 18:13:01 GMT 32.914162 -97.049530 0 270 0 0
2021-05-16 18:13:00 GMT 32.914188 -97.049530 0 270 0 0
2021-05-16 18:12:57 GMT 32.914181 -97.049553 0 270 0 0
2021-05-16 18:12:52 GMT 32.914200 -97.049538 0 270 0 0
2021-05-16 18:12:50 GMT 32.914188 -97.049538 0 270 0 0
2021-05-16 18:12:49 GMT 32.914181 -97.049530 0 270 0 0
2021-05-16 18:12:48 GMT 32.914188 -97.049522 0 270 0 0
2021-05-16 18:12:46 GMT 32.914188 -97.049500 0 270 0 0
2021-05-16 18:12:45 GMT 32.914200 -97.049500 0 270 0 0
2021-05-16 18:12:42 GMT 32.914188 -97.049492 0 270 0 0
2021-05-16 18:12:41 GMT 32.914200 -97.049492 0 270 0 0
2021-05-16 18:12:37 GMT 32.914188 -97.049507 0 270 0 0
2021-05-16 18:12:36 GMT 32.914200 -97.049500 0 270 0 0
2021-05-16 18:12:35 GMT 32.914188 -97.049522 0 270 0 0
2021-05-16 18:12:31 GMT 32.914188 -97.049530 0 270 0 0
2021-05-16 18:12:30 GMT 32.914181 -97.049538 0 270 0 0
2021-05-16 18:12:29 GMT 32.914181 -97.049553 0 270 0 0
2021-05-16 18:12:27 GMT 32.914169 -97.049561 0 270 0 0
2021-05-16 18:12:26 GMT 32.914188 -97.049530 0 270 0 0
2021-05-16 18:12:25 GMT 32.914188 -97.049530 0 270 0 0
2021-05-16 18:12:22 GMT 32.914188 -97.049507 0 270 0 0
2021-05-16 18:12:20 GMT 32.914200 -97.049522 0 270 0 0
2021-05-16 18:12:19 GMT 32.914200 -97.049530 0 270 0 0
2021-05-16 18:12:16 GMT 32.914188 -97.049538 0 270 0 0
2021-05-16 18:12:15 GMT 32.914181 -97.049553 0 270 0 0
2021-05-16 18:12:08 GMT 32.914181 -97.049561 0 270 0 0
2021-05-16 18:12:06 GMT 32.914181 -97.049522 0 270 0 0
2021-05-16 18:12:05 GMT 32.914181 -97.049538 0 270 0 0
2021-05-16 18:12:03 GMT 32.914169 -97.049553 0 270 0 0
2021-05-16 18:12:02 GMT 32.914169 -97.049538 0 270 0 0
2021-05-16 18:12:01 GMT 32.914181 -97.049530 0 270 0 0
2021-05-16 18:11:59 GMT 32.914181 -97.049538 0 270 0 0
2021-05-16 18:11:56 GMT 32.914169 -97.049553 0 270 0 0
2021-05-16 18:11:55 GMT 32.914169 -97.049538 0 270 0 0
2021-05-16 18:11:52 GMT 32.914188 -97.049538 0 270 0 0
2021-05-16 18:11:50 GMT 32.914181 -97.049530 0 270 0 0
2021-05-16 18:11:47 GMT 32.914181 -97.049561 0 270 0 0
2021-05-16 18:11:45 GMT 32.914181 -97.049530 0 270 0 0
2021-05-16 18:11:44 GMT 32.914169 -97.049530 0 270 0 0
2021-05-16 18:11:43 GMT 32.914188 -97.049522 0 270 0 0
2021-05-16 18:11:41 GMT 32.914188 -97.049522 0 270 0 0
2021-05-16 18:11:38 GMT 32.914188 -97.049538 0 270 0 0
2021-05-16 18:11:36 GMT 32.914181 -97.049538 0 270 0 0
2021-05-16 18:11:33 GMT 32.914169 -97.049553 0 270 0 0
2021-05-16 18:11:32 GMT 32.914188 -97.049553 0 270 0 0
2021-05-16 18:11:29 GMT 32.914188 -97.049583 0 270 0 0
2021-05-16 18:11:27 GMT 32.914188 -97.049522 0 270 0 0
2021-05-16 18:11:26 GMT 32.914200 -97.049522 0 270 0 0
2021-05-16 18:11:24 GMT 32.914188 -97.049538 0 270 0 0
2021-05-16 18:11:22 GMT 32.914200 -97.049553 0 270 0 0
2021-05-16 18:11:17 GMT 32.914200 -97.049553 0 270 0 0
2021-05-16 18:11:14 GMT 32.914181 -97.049553 0 270 0 0
2021-05-16 18:11:12 GMT 32.914188 -97.049553 0 270 0 0
2021-05-16 18:11:11 GMT 32.914181 -97.049500 0 270 0 0
2021-05-16 18:11:07 GMT 32.914188 -97.049507 0 270 0 0
2021-05-16 18:11:06 GMT 32.914188 -97.049522 0 270 0 0
2021-05-16 18:11:05 GMT 32.914188 -97.049507 0 270 0 0
2021-05-16 18:11:01 GMT 32.914188 -97.049522 0 270 0 0
2021-05-16 18:10:59 GMT 32.914188 -97.049530 0 270 0 0
2021-05-16 18:10:57 GMT 32.914181 -97.049530 0 270 0 0
2021-05-16 18:10:56 GMT 32.914188 -97.049522 0 270 0 0
2021-05-16 18:10:54 GMT 32.914188 -97.049522 0 270 0 0
2021-05-16 18:10:53 GMT 32.914181 -97.049530 0 270 0 0
2021-05-16 18:10:51 GMT 32.914211 -97.049538 0 270 0 0
2021-05-16 18:10:49 GMT 32.914211 -97.049561 0 270 0 0
2021-05-16 18:10:47 GMT 32.914200 -97.049507 0 270 0 0
2021-05-16 18:10:46 GMT 32.914200 -97.049492 0 270 0 0
2021-05-16 18:10:45 GMT 32.914200 -97.049507 0 270 0 0
2021-05-16 18:10:44 GMT 32.914200 -97.049530 0 270 0 0
2021-05-16 18:10:42 GMT 32.914188 -97.049530 0 270 0 0
2021-05-16 18:10:40 GMT 32.914188 -97.049507 0 270 0 0
2021-05-16 18:10:39 GMT 32.914188 -97.049522 0 270 0 0
2021-05-16 18:10:38 GMT 32.914181 -97.049530 0 270 0 0
2021-05-16 18:10:36 GMT 32.914181 -97.049522 0 270 0 0
2021-05-16 18:10:34 GMT 32.914181 -97.049522 0 270 0 0
2021-05-16 18:10:32 GMT 32.914188 -97.049492 0 270 0 0
2021-05-16 18:10:30 GMT 32.914188 -97.049477 0 270 0 0
2021-05-16 18:10:29 GMT 32.914200 -97.049492 0 270 0 0
2021-05-16 18:10:27 GMT 32.914188 -97.049492 0 270 0 0
2021-05-16 18:10:26 GMT 32.914200 -97.049492 0 270 0 0
2021-05-16 18:10:25 GMT 32.914188 -97.049492 0 270 0 0
2021-05-16 18:10:23 GMT 32.914200 -97.049507 0 270 0 0
2021-05-16 18:10:22 GMT 32.914188 -97.049492 0 270 0 0
2021-05-16 18:10:20 GMT 32.914188 -97.049500 0 270 0 0
2021-05-16 18:10:19 GMT 32.914188 -97.049507 0 270 0 0
2021-05-16 18:10:17 GMT 32.914188 -97.049522 0 270 0 0
2021-05-16 18:10:16 GMT 32.914188 -97.049530 0 270 0 0
2021-05-16 18:10:15 GMT 32.914181 -97.049553 0 270 0 0
2021-05-16 18:10:12 GMT 32.914169 -97.049561 0 270 0 0
2021-05-16 18:10:11 GMT 32.914181 -97.049591 0 270 1 0
2021-05-16 18:10:08 GMT 32.914169 -97.049522 0 270 0 0
2021-05-16 18:10:07 GMT 32.914181 -97.049522 0 270 0 0
2021-05-16 18:10:06 GMT 32.914181 -97.049538 0 270 0 0
2021-05-16 18:09:59 GMT 32.914181 -97.049538 0 270 0 0
2021-05-16 18:09:57 GMT 32.914181 -97.049530 0 270 0 0
2021-05-16 18:09:56 GMT 32.914181 -97.049507 0 270 0 0
2021-05-16 18:09:54 GMT 32.914181 -97.049522 0 270 0 0
2021-05-16 18:09:53 GMT 32.914200 -97.049477 0 270 0 0
2021-05-16 18:09:51 GMT 32.914200 -97.049477 0 270 0 0
2021-05-16 18:09:50 GMT 32.914188 -97.049500 0 270 0 0
2021-05-16 18:09:48 GMT 32.914200 -97.049507 0 270 0 0
2021-05-16 18:09:47 GMT 32.914188 -97.049507 0 270 0 0
2021-05-16 18:09:46 GMT 32.914200 -97.049500 0 270 0 0
2021-05-16 18:09:42 GMT 32.914188 -97.049522 0 270 0 0
2021-05-16 18:09:40 GMT 32.914188 -97.049530 0 270 0 0
2021-05-16 18:09:37 GMT 32.914181 -97.049530 0 270 0 0
2021-05-16 18:09:36 GMT 32.914181 -97.049522 0 270 0 0
2021-05-16 18:09:33 GMT 32.914181 -97.049538 0 270 0 0
2021-05-16 18:09:31 GMT 32.914188 -97.049553 0 270 0 0
2021-05-16 18:09:30 GMT 32.914188 -97.049561 0 270 0 0
2021-05-16 18:09:29 GMT 32.914188 -97.049553 0 270 0 0
2021-05-16 18:09:13 GMT 32.914181 -97.049553 0 270 0 0
2021-05-16 18:09:09 GMT 32.914188 -97.049553 0 270 0 0
2021-05-16 18:09:08 GMT 32.914181 -97.049553 0 270 0 0
2021-05-16 18:09:06 GMT 32.914181 -97.049538 0 270 0 0
2021-05-16 18:09:03 GMT 32.914188 -97.049530 0 270 0 0
2021-05-16 18:09:01 GMT 32.914200 -97.049538 0 270 0 0
2021-05-16 18:09:00 GMT 32.914200 -97.049553 0 270 0 0
2021-05-16 18:08:58 GMT 32.914200 -97.049538 0 270 0 0
2021-05-16 18:08:56 GMT 32.914169 -97.049553 0 270 0 0
2021-05-16 18:08:53 GMT 32.914188 -97.049538 0 270 0 0
2021-05-16 18:08:51 GMT 32.914188 -97.049538 0 270 0 0
2021-05-16 18:08:49 GMT 32.914181 -97.049538 0 270 0 0
2021-05-16 18:08:48 GMT 32.914181 -97.049530 0 270 0 0
2021-05-16 18:08:47 GMT 32.914169 -97.049553 0 270 0 0
2021-05-16 18:08:44 GMT 32.914169 -97.049561 0 270 0 0
2021-05-16 18:08:43 GMT 32.914169 -97.049553 0 270 0 0
2021-05-16 18:08:40 GMT 32.914200 -97.049530 0 270 0 0
2021-05-16 18:08:38 GMT 32.914181 -97.049522 0 270 0 0
2021-05-16 18:08:36 GMT 32.914181 -97.049538 0 270 1 0
2021-05-16 18:08:33 GMT 32.914181 -97.049538 0 270 1 0
2021-05-16 18:08:32 GMT 32.914188 -97.049553 0 270 0 0
2021-05-16 18:08:28 GMT 32.914188 -97.049553 0 270 0 0
2021-05-16 18:08:24 GMT 32.914200 -97.049553 0 270 0 0
2021-05-16 18:08:22 GMT 32.914188 -97.049561 0 270 0 0
2021-05-16 18:08:20 GMT 32.914188 -97.049561 0 270 0 0
2021-05-16 18:08:17 GMT 32.914188 -97.049538 0 270 0 0
2021-05-16 18:08:14 GMT 32.914200 -97.049561 0 270 0 0
2021-05-16 18:08:13 GMT 32.914181 -97.049538 0 270 0 0
2021-05-16 18:08:08 GMT 32.914181 -97.049538 0 270 0 0
2021-05-16 18:08:07 GMT 32.914181 -97.049553 0 270 0 0
2021-05-16 18:07:59 GMT 32.914188 -97.049538 0 270 0 0
2021-05-16 18:07:54 GMT 32.914188 -97.049538 0 270 0 0
2021-05-16 18:07:45 GMT 32.914181 -97.049553 0 270 0 0
2021-05-16 18:07:39 GMT 32.914181 -97.049553 0 270 0 0
2021-05-16 18:07:31 GMT 32.914181 -97.049553 0 270 1 0
2021-05-16 18:07:29 GMT 32.914169 -97.049538 0 270 1 0
2021-05-16 18:07:27 GMT 32.914188 -97.049568 0 270 1 0
2021-05-16 18:07:26 GMT 32.914188 -97.049583 0 270 1 0
2021-05-16 18:07:24 GMT 32.914188 -97.049568 0 270 1 0
2021-05-16 18:07:14 GMT 32.914188 -97.049538 0 270 0 0
2021-05-16 18:07:09 GMT 32.914200 -97.049538 0 270 0 0
2021-05-16 18:06:49 GMT 32.914200 -97.049553 0 270 0 0
2021-05-16 18:06:44 GMT 32.914188 -97.049561 0 270 0 0
2021-05-16 18:06:39 GMT 32.914200 -97.049553 0 270 0 0
2021-05-16 18:06:37 GMT 32.914219 -97.049553 0 270 1 0
2021-05-16 18:06:35 GMT 32.914219 -97.049553 0 270 1 0
2021-05-16 18:06:34 GMT 32.914211 -97.049561 0 270 1 0
2021-05-16 18:06:31 GMT 32.914188 -97.049568 0 270 0 0
2021-05-16 18:06:29 GMT 32.914188 -97.049553 0 270 0 0
2021-05-16 18:06:27 GMT 32.914181 -97.049553 0 270 0 0
2021-05-16 18:06:24 GMT 32.914188 -97.049538 0 270 0 0
2021-05-16 18:06:23 GMT 32.914188 -97.049561 0 270 1 0
2021-05-16 18:06:22 GMT 32.914200 -97.049568 0 270 1 0
2021-05-16 18:06:20 GMT 32.914188 -97.049561 0 270 1 0
2021-05-16 18:06:19 GMT 32.914188 -97.049553 0 270 1 0
2021-05-16 18:06:17 GMT 32.914150 -97.049538 0 270 1 0
2021-05-16 18:06:16 GMT 32.914139 -97.049553 0 270 1 0
2021-05-16 18:06:15 GMT 32.914150 -97.049538 0 270 1 0
2021-05-16 18:06:14 GMT 32.914131 -97.049553 0 270 2 0
2021-05-16 18:06:09 GMT 32.914181 -97.049538 0 270 0 0
2021-05-16 18:06:07 GMT 32.914188 -97.049553 0 270 0 0
2021-05-16 18:06:02 GMT 32.914188 -97.049538 0 270 0 0
2021-05-16 18:06:01 GMT 32.914181 -97.049538 0 270 0 0
2021-05-16 18:05:56 GMT 32.914181 -97.049538 0 270 0 0
2021-05-16 18:05:55 GMT 32.914169 -97.049530 0 270 1 0
2021-05-16 18:05:54 GMT 32.914162 -97.049561 0 270 1 0
2021-05-16 18:05:52 GMT 32.914181 -97.049530 0 270 0 0
2021-05-16 18:05:51 GMT 32.914181 -97.049522 0 270 1 0
2021-05-16 18:05:50 GMT 32.914181 -97.049538 0 270 0 0
2021-05-16 18:05:48 GMT 32.914188 -97.049538 0 270 1 0
2021-05-16 18:05:46 GMT 32.914181 -97.049553 0 270 0 0
2021-05-16 18:05:44 GMT 32.914181 -97.049538 0 270 0 0
2021-05-16 18:05:43 GMT 32.914181 -97.049530 0 270 0 0
2021-05-16 18:05:41 GMT 32.914181 -97.049553 0 270 4 0
2021-05-16 18:05:40 GMT 32.914169 -97.049522 0 270 3 0
2021-05-16 18:05:38 GMT 32.914188 -97.049492 0 271 3 0
2021-05-16 18:05:37 GMT 32.914181 -97.049469 0 272 4 0
2021-05-16 18:05:35 GMT 32.914188 -97.049431 0 271 3 0
2021-05-16 18:05:33 GMT 32.914181 -97.049408 0 272 4 0
2021-05-16 18:05:31 GMT 32.914181 -97.049370 0 271 4 0
2021-05-16 18:05:30 GMT 32.914162 -97.049301 0 271 2 0
2021-05-16 18:05:28 GMT 32.914169 -97.049309 0 272 3 0
2021-05-16 18:05:27 GMT 32.914162 -97.049301 0 275 4 0
2021-05-16 18:05:25 GMT 32.914181 -97.049263 0 284 4 0
2021-05-16 18:05:24 GMT 32.914169 -97.049240 0 286 4 0
2021-05-16 18:05:22 GMT 32.914169 -97.049187 0 294 4 0
2021-05-16 18:05:21 GMT 32.914162 -97.049171 0 294 4 0
2021-05-16 18:05:20 GMT 32.914139 -97.049141 0 293 5 0
2021-05-16 18:05:18 GMT 32.914139 -97.049103 0 299 4 0
2021-05-16 18:05:17 GMT 32.914131 -97.049072 0 303 4 0
2021-05-16 18:05:15 GMT 32.914120 -97.049019 0 315 3 0
2021-05-16 18:05:13 GMT 32.914108 -97.049004 0 320 6 0
2021-05-16 18:05:12 GMT 32.914101 -97.049004 0 322 8 0
2021-05-16 18:05:10 GMT 32.914028 -97.048897 0 337 3 0
2021-05-16 18:05:09 GMT 32.914040 -97.048897 0 337 4 0
2021-05-16 18:05:07 GMT 32.914001 -97.048897 0 336 3 0
2021-05-16 18:05:06 GMT 32.913979 -97.048859 0 337 1 0
2021-05-16 18:05:05 GMT 32.913952 -97.048813 0 337 1 0
2021-05-16 18:05:01 GMT 32.913952 -97.048813 0 337 1 0
2021-05-16 18:04:59 GMT 32.913971 -97.048843 0 337 1 0
2021-05-16 18:04:57 GMT 32.913990 -97.048843 0 337 2 0
2021-05-16 18:04:56 GMT 32.913952 -97.048813 0 337 1 0
2021-05-16 18:04:55 GMT 32.913952 -97.048790 0 337 0 0
2021-05-16 18:04:53 GMT 32.913971 -97.048752 0 337 2 0
2021-05-16 18:04:52 GMT 32.913960 -97.048752 0 337 2 0
2021-05-16 18:04:51 GMT 32.913929 -97.048767 0 337 2 0
2021-05-16 18:04:49 GMT 32.913929 -97.048782 0 337 2 0
2021-05-16 18:04:48 GMT 32.913940 -97.048790 0 337 2 0
2021-05-16 18:04:46 GMT 32.913940 -97.048813 0 337 1 0
2021-05-16 18:04:44 GMT 32.913971 -97.048851 0 337 1 0
2021-05-16 18:04:42 GMT 32.913979 -97.048851 0 337 1 0
2021-05-16 18:04:41 GMT 32.913971 -97.048851 0 337 1 0
2021-05-16 18:04:39 GMT 32.913960 -97.048843 0 337 1 0
2021-05-16 18:04:37 GMT 32.913971 -97.048851 0 337 1 0
2021-05-16 18:04:36 GMT 32.913971 -97.048843 0 337 1 0
2021-05-16 18:04:34 GMT 32.913929 -97.048820 0 337 0 0
2021-05-16 18:04:31 GMT 32.913940 -97.048820 0 337 0 0
2021-05-16 18:04:30 GMT 32.913929 -97.048820 0 337 0 0
2021-05-16 18:04:22 GMT 32.913921 -97.048813 0 337 0 0
2021-05-16 18:04:20 GMT 32.913929 -97.048813 0 337 1 0
2021-05-16 18:04:18 GMT 32.913929 -97.048790 0 337 1 0
2021-05-16 18:04:17 GMT 32.913929 -97.048798 0 337 1 0
2021-05-16 18:04:16 GMT 32.913940 -97.048798 0 337 1 0
2021-05-16 18:04:13 GMT 32.913940 -97.048813 0 337 2 0
2021-05-16 18:04:12 GMT 32.913960 -97.048851 0 337 1 0
2021-05-16 18:04:11 GMT 32.913960 -97.048828 0 337 1 0
2021-05-16 18:04:09 GMT 32.914001 -97.048882 0 337 3 0
2021-05-16 18:04:07 GMT 32.913979 -97.048859 0 337 3 0
2021-05-16 18:04:06 GMT 32.913940 -97.048843 0 337 2 0
2021-05-16 18:04:05 GMT 32.913921 -97.048790 0 337 1 0
2021-05-16 18:04:00 GMT 32.913940 -97.048782 0 337 0 0
2021-05-16 18:03:57 GMT 32.913921 -97.048782 0 337 0 0
2021-05-16 18:03:56 GMT 32.913929 -97.048782 0 336 1 0
2021-05-16 18:03:54 GMT 32.913910 -97.048813 0 336 1 0
2021-05-16 18:03:52 GMT 32.913921 -97.048820 0 336 1 0
2021-05-16 18:03:51 GMT 32.913910 -97.048813 0 336 1 0
2021-05-16 18:03:50 GMT 32.913910 -97.048798 0 336 1 0
2021-05-16 18:03:49 GMT 32.913891 -97.048798 0 336 1 0
2021-05-16 18:03:46 GMT 32.913898 -97.048767 0 336 0 0
2021-05-16 18:03:44 GMT 32.913910 -97.048790 0 336 0 0
2021-05-16 18:03:41 GMT 32.913898 -97.048790 0 336 0 0
2021-05-16 18:03:39 GMT 32.913940 -97.048759 0 336 2 0
2021-05-16 18:03:38 GMT 32.913929 -97.048767 0 336 2 0
2021-05-16 18:03:36 GMT 32.913910 -97.048790 0 336 1 0
2021-05-16 18:03:30 GMT 32.913910 -97.048828 0 336 1 0
2021-05-16 18:03:29 GMT 32.913891 -97.048851 0 336 1 0
2021-05-16 18:03:27 GMT 32.913891 -97.048843 0 336 1 0
2021-05-16 18:03:26 GMT 32.913879 -97.048828 0 336 1 0
2021-05-16 18:03:24 GMT 32.913891 -97.048828 0 336 1 0
2021-05-16 18:03:21 GMT 32.913898 -97.048828 0 336 0 0
2021-05-16 18:03:20 GMT 32.913921 -97.048851 0 336 0 0
2021-05-16 18:03:15 GMT 32.913898 -97.048843 0 337 0 0
2021-05-16 18:03:11 GMT 32.913891 -97.048828 0 337 0 0
2021-05-16 18:03:09 GMT 32.913898 -97.048828 0 337 0 0
2021-05-16 18:03:06 GMT 32.913910 -97.048843 0 337 0 0
2021-05-16 18:03:01 GMT 32.913891 -97.048828 0 337 1 0
2021-05-16 18:02:59 GMT 32.913910 -97.048828 0 337 2 0
2021-05-16 18:02:58 GMT 32.913929 -97.048859 0 337 2 0
2021-05-16 18:02:56 GMT 32.913921 -97.048851 0 337 2 0
2021-05-16 18:02:55 GMT 32.913910 -97.048843 0 337 2 0
2021-05-16 18:02:53 GMT 32.913898 -97.048798 0 338 0 0
2021-05-16 18:02:52 GMT 32.913891 -97.048782 0 338 1 0
2021-05-16 18:02:51 GMT 32.913879 -97.048798 0 338 0 0
2021-05-16 18:02:49 GMT 32.913879 -97.048813 0 334 0 0
2021-05-16 18:02:48 GMT 32.913891 -97.048828 0 334 0 0
2021-05-16 18:02:46 GMT 32.913879 -97.048843 0 335 2 0
2021-05-16 18:02:45 GMT 32.913891 -97.048813 0 335 0 0
2021-05-16 18:02:43 GMT 32.913898 -97.048820 0 335 0 0
2021-05-16 18:02:42 GMT 32.913891 -97.048820 0 335 0 0
2021-05-16 18:02:41 GMT 32.913891 -97.048798 0 335 0 0
2021-05-16 18:02:39 GMT 32.913891 -97.048790 0 331 1 0
2021-05-16 18:02:37 GMT 32.913879 -97.048828 0 330 0 0
2021-05-16 18:02:35 GMT 32.913849 -97.048843 0 331 2 0
2021-05-16 18:02:34 GMT 32.913879 -97.048820 0 334 0 0
2021-05-16 18:02:32 GMT 32.913898 -97.048820 0 336 2 0
2021-05-16 18:02:31 GMT 32.913872 -97.048813 0 335 0 0
2021-05-16 18:02:29 GMT 32.913872 -97.048813 0 335 2 0
2021-05-16 18:02:28 GMT 32.913872 -97.048843 0 335 4 0
2021-05-16 18:02:27 GMT 32.913872 -97.048790 0 349 5 0
2021-05-16 18:02:25 GMT 32.913841 -97.048790 0 354 4 0
2021-05-16 18:02:24 GMT 32.913818 -97.048767 0 4 4 0
2021-05-16 18:02:22 GMT 32.913792 -97.048752 0 14 5 0
2021-05-16 18:02:21 GMT 32.913761 -97.048737 0 8 5 0
2021-05-16 18:02:20 GMT 32.913761 -97.048782 0 359 6 0
2021-05-16 18:02:19 GMT 32.913731 -97.048798 0 357 8 0
2021-05-16 18:02:17 GMT 32.913689 -97.048782 0 1 8 0
2021-05-16 18:02:16 GMT 32.913651 -97.048782 0 3 7 0
2021-05-16 18:02:14 GMT 32.913540 -97.048782 0 0 6 0
2021-05-16 18:02:12 GMT 32.913521 -97.048813 0 349 6 0
2021-05-16 18:02:11 GMT 32.913479 -97.048782 0 359 6 0
2021-05-16 18:02:09 GMT 32.913441 -97.048790 0 356 5 0
2021-05-16 18:02:08 GMT 32.913391 -97.048790 0 357 5 0
2021-05-16 18:02:05 GMT 32.913288 -97.048767 0 0 1 0
2021-05-16 18:02:03 GMT 32.913261 -97.048782 0 0 0 0
2021-05-16 18:02:02 GMT 32.913250 -97.048782 0 0 0 0
2021-05-16 18:01:59 GMT 32.913189 -97.048798 0 0 0 0
2021-05-16 18:01:58 GMT 32.913189 -97.048790 0 0 0 0
2021-05-16 18:01:56 GMT 32.913189 -97.048790 0 0 0 0
2021-05-16 18:01:54 GMT 32.913170 -97.048782 0 0 0 0
2021-05-16 18:01:53 GMT 32.913181 -97.048782 0 0 0 0
2021-05-16 18:01:52 GMT 32.913189 -97.048782 0 0 0 0
2021-05-16 18:01:50 GMT 32.913158 -97.048798 0 0 0 0
2021-05-16 18:01:49 GMT 32.913158 -97.048813 0 0 0 0
2021-05-16 18:01:48 GMT 32.913181 -97.048782 0 0 0 0
2021-05-16 18:01:47 GMT 32.913181 -97.048790 0 0 0 0
2021-05-16 18:01:44 GMT 32.913170 -97.048798 0 0 0 0
2021-05-16 18:01:42 GMT 32.913181 -97.048782 0 0 0 0
2021-05-16 18:01:41 GMT 32.913151 -97.048813 0 0 1 0
2021-05-16 18:01:38 GMT 32.913170 -97.048782 0 0 0 0
2021-05-16 18:01:37 GMT 32.913170 -97.048798 0 0 0 0
2021-05-16 18:01:34 GMT 32.913170 -97.048790 0 0 0 0
2021-05-16 18:01:32 GMT 32.913170 -97.048790 0 0 0 0
2021-05-16 18:01:30 GMT 32.913158 -97.048790 0 0 0 0
2021-05-16 18:01:29 GMT 32.913158 -97.048798 0 0 0 0
2021-05-16 18:01:27 GMT 32.913181 -97.048782 0 0 0 0
2021-05-16 18:01:26 GMT 32.913170 -97.048798 0 0 0 0
2021-05-16 18:01:25 GMT 32.913158 -97.048798 0 0 0 0
2021-05-16 18:01:22 GMT 32.913170 -97.048798 0 0 0 0
2021-05-16 18:01:21 GMT 32.913181 -97.048790 0 0 0 0
2021-05-16 18:01:19 GMT 32.913181 -97.048782 0 0 0 0
2021-05-16 18:01:16 GMT 32.913170 -97.048798 0 0 0 0
2021-05-16 18:01:14 GMT 32.913170 -97.048782 0 0 0 0
2021-05-16 18:01:13 GMT 32.913181 -97.048782 0 0 0 0
2021-05-16 18:01:11 GMT 32.913158 -97.048790 0 0 0 0
2021-05-16 18:01:09 GMT 32.913170 -97.048782 0 0 0 0
2021-05-16 18:01:08 GMT 32.913181 -97.048782 0 0 0 0
2021-05-16 18:01:07 GMT 32.913181 -97.048798 0 0 0 0
2021-05-16 18:01:05 GMT 32.913170 -97.048782 0 0 0 0
2021-05-16 18:01:04 GMT 32.913170 -97.048790 0 0 1 0
2021-05-16 18:01:01 GMT 32.913181 -97.048790 0 0 2 0
2021-05-16 18:01:00 GMT 32.913170 -97.048798 0 0 0 0
2021-05-16 18:00:59 GMT 32.913189 -97.048782 0 0 0 0
2021-05-16 18:00:57 GMT 32.913189 -97.048782 0 0 0 0
2021-05-16 18:00:56 GMT 32.913181 -97.048790 0 0 0 0
2021-05-16 18:00:54 GMT 32.913170 -97.048782 0 0 0 0
2021-05-16 18:00:53 GMT 32.913181 -97.048782 0 0 0 0
2021-05-16 18:00:52 GMT 32.913170 -97.048798 0 0 0 0
2021-05-16 18:00:50 GMT 32.913151 -97.048798 0 0 0 0
2021-05-16 18:00:49 GMT 32.913158 -97.048798 0 0 1 0
2021-05-16 18:00:46 GMT 32.913181 -97.048782 0 0 0 0
2021-05-16 18:00:44 GMT 32.913170 -97.048790 0 0 0 0
2021-05-16 18:00:43 GMT 32.913181 -97.048790 0 0 1 0
2021-05-16 18:00:41 GMT 32.913181 -97.048790 0 0 1 0
2021-05-16 18:00:40 GMT 32.913158 -97.048820 0 0 1 0
2021-05-16 18:00:38 GMT 32.913181 -97.048782 0 0 0 0
2021-05-16 18:00:36 GMT 32.913189 -97.048782 0 0 0 0
2021-05-16 18:00:34 GMT 32.913170 -97.048782 0 0 0 0
2021-05-16 18:00:33 GMT 32.913158 -97.048813 0 0 1 0
2021-05-16 18:00:32 GMT 32.913170 -97.048798 0 0 1 0
2021-05-16 18:00:30 GMT 32.913151 -97.048813 0 0 1 0
2021-05-16 18:00:29 GMT 32.913158 -97.048798 0 0 1 0
2021-05-16 18:00:26 GMT 32.913158 -97.048790 0 0 1 0
2021-05-16 18:00:24 GMT 32.913181 -97.048767 0 0 1 0
2021-05-16 18:00:23 GMT 32.913189 -97.048767 0 0 2 0
2021-05-16 18:00:22 GMT 32.913200 -97.048767 0 0 2 0
2021-05-16 18:00:20 GMT 32.913181 -97.048767 0 0 2 0
2021-05-16 18:00:19 GMT 32.913170 -97.048790 0 0 1 0
2021-05-16 18:00:16 GMT 32.913170 -97.048798 0 0 0 0
2021-05-16 18:00:15 GMT 32.913170 -97.048790 0 0 1 0
2021-05-16 18:00:14 GMT 32.913170 -97.048790 0 0 1 0
2021-05-16 18:00:12 GMT 32.913181 -97.048790 0 0 1 0
2021-05-16 18:00:11 GMT 32.913189 -97.048767 0 0 1 0
2021-05-16 18:00:09 GMT 32.913158 -97.048798 0 0 0 0
2021-05-16 18:00:08 GMT 32.913181 -97.048798 0 0 0 0
2021-05-16 18:00:06 GMT 32.913189 -97.048782 0 0 0 0
2021-05-16 18:00:04 GMT 32.913158 -97.048798 0 0 0 0
2021-05-16 18:00:03 GMT 32.913170 -97.048798 0 0 0 0
2021-05-16 18:00:02 GMT 32.913181 -97.048813 0 0 0 0
2021-05-16 18:00:01 GMT 32.913181 -97.048782 0 0 0 0
2021-05-16 17:59:59 GMT 32.913170 -97.048782 0 0 0 0
2021-05-16 17:59:57 GMT 32.913181 -97.048782 0 0 0 0
2021-05-16 17:59:55 GMT 32.913151 -97.048798 0 0 0 0
2021-05-16 17:59:54 GMT 32.913158 -97.048798 0 0 0 0
2021-05-16 17:59:53 GMT 32.913170 -97.048798 0 0 0 0
2021-05-16 17:59:51 GMT 32.913170 -97.048790 0 0 0 0
2021-05-16 17:59:49 GMT 32.913158 -97.048798 0 0 0 0
2021-05-16 17:59:46 GMT 32.913181 -97.048782 0 0 0 0
2021-05-16 17:59:43 GMT 32.913181 -97.048782 0 0 0 0
2021-05-16 17:59:41 GMT 32.913181 -97.048798 0 0 0 0
2021-05-16 17:59:39 GMT 32.913158 -97.048798 0 0 0 0
2021-05-16 17:59:37 GMT 32.913189 -97.048782 0 0 0 0
2021-05-16 17:59:36 GMT 32.913181 -97.048790 0 0 0 0
2021-05-16 17:59:34 GMT 32.913170 -97.048798 0 0 0 0
2021-05-16 17:59:33 GMT 32.913181 -97.048782 0 0 0 0
2021-05-16 17:59:31 GMT 32.913181 -97.048798 0 0 0 0
2021-05-16 17:59:29 GMT 32.913158 -97.048798 0 0 0 0
2021-05-16 17:59:27 GMT 32.913181 -97.048782 0 0 0 0
2021-05-16 17:59:26 GMT 32.913181 -97.048790 0 0 0 0
2021-05-16 17:59:25 GMT 32.913170 -97.048782 0 0 0 0
2021-05-16 17:59:21 GMT 32.913170 -97.048798 0 0 0 0
2021-05-16 17:59:19 GMT 32.913151 -97.048798 0 0 0 0
2021-05-16 17:59:18 GMT 32.913158 -97.048798 0 0 0 0
2021-05-16 17:59:16 GMT 32.913181 -97.048782 0 0 0 0
2021-05-16 17:59:14 GMT 32.913170 -97.048782 0 0 0 0
2021-05-16 17:59:11 GMT 32.913181 -97.048782 0 0 0 0
2021-05-16 17:59:09 GMT 32.913170 -97.048782 0 0 0 0
2021-05-16 17:59:08 GMT 32.913181 -97.048782 0 0 0 0
2021-05-16 17:59:07 GMT 32.913170 -97.048798 0 0 0 0
2021-05-16 17:59:04 GMT 32.913170 -97.048798 0 0 0 0
2021-05-16 17:59:03 GMT 32.913181 -97.048798 0 0 0 0
2021-05-16 17:59:01 GMT 32.913189 -97.048782 0 0 0 0
2021-05-16 17:58:59 GMT 32.913158 -97.048798 0 0 0 0
2021-05-16 17:58:56 GMT 32.913170 -97.048798 0 0 0 0
2021-05-16 17:58:53 GMT 32.913158 -97.048798 0 0 0 0
2021-05-16 17:58:52 GMT 32.913181 -97.048790 0 0 0 0
2021-05-16 17:58:51 GMT 32.913189 -97.048782 0 0 0 0
2021-05-16 17:58:49 GMT 32.913170 -97.048782 0 0 0 0
2021-05-16 17:58:48 GMT 32.913181 -97.048782 0 0 0 0
2021-05-16 17:58:47 GMT 32.913181 -97.048782 0 0 0 0
2021-05-16 17:58:45 GMT 32.913158 -97.048798 0 0 0 0
2021-05-16 17:58:44 GMT 32.913158 -97.048798 0 0 0 0
2021-05-16 17:58:42 GMT 32.913181 -97.048790 0 0 0 0
2021-05-16 17:58:40 GMT 32.913181 -97.048790 0 0 0 0
2021-05-16 17:58:39 GMT 32.913170 -97.048782 0 0 0 0
2021-05-16 17:58:38 GMT 32.913181 -97.048782 0 0 0 0
2021-05-16 17:58:36 GMT 32.913170 -97.048798 0 0 0 0
2021-05-16 17:58:34 GMT 32.913181 -97.048782 0 0 0 0
2021-05-16 17:58:31 GMT 32.913170 -97.048798 0 0 0 0
2021-05-16 17:58:29 GMT 32.913170 -97.048782 0 0 0 0
2021-05-16 17:58:28 GMT 32.913181 -97.048782 0 0 0 0
2021-05-16 17:58:26 GMT 32.913170 -97.048798 0 0 0 0
2021-05-16 17:58:25 GMT 32.913158 -97.048790 0 0 0 0
2021-05-16 17:58:24 GMT 32.913151 -97.048798 0 0 0 0
2021-05-16 17:58:21 GMT 32.913170 -97.048798 0 0 0 0
2021-05-16 17:58:20 GMT 32.913158 -97.048798 0 0 0 0
2021-05-16 17:58:18 GMT 32.913158 -97.048798 0 0 0 0
2021-05-16 17:58:16 GMT 32.913170 -97.048798 0 0 0 0
2021-05-16 17:58:15 GMT 32.913158 -97.048790 0 0 0 0
2021-05-16 17:58:14 GMT 32.913170 -97.048782 0 0 0 0
2021-05-16 17:58:11 GMT 32.913181 -97.048782 0 0 0 0
2021-05-16 17:58:10 GMT 32.913181 -97.048790 0 0 0 0
2021-05-16 17:58:09 GMT 32.913181 -97.048782 0 0 1 0
2021-05-16 17:58:07 GMT 32.913181 -97.048782 0 0 0 0
2021-05-16 17:58:05 GMT 32.913170 -97.048798 0 0 0 0
2021-05-16 17:58:04 GMT 32.913151 -97.048798 0 0 0 0
2021-05-16 17:58:03 GMT 32.913158 -97.048798 0 0 0 0
2021-05-16 17:58:01 GMT 32.913170 -97.048798 0 0 0 0
2021-05-16 17:58:00 GMT 32.913158 -97.048790 0 0 0 0
2021-05-16 17:57:58 GMT 32.913170 -97.048782 0 0 0 0
2021-05-16 17:57:56 GMT 32.913170 -97.048798 0 0 0 0
2021-05-16 17:57:55 GMT 32.913170 -97.048790 0 0 0 0
2021-05-16 17:57:54 GMT 32.913158 -97.048798 0 0 0 0
2021-05-16 17:57:53 GMT 32.913170 -97.048798 0 0 0 0
2021-05-16 17:57:52 GMT 32.913170 -97.048798 0 0 0 0
2021-05-16 17:57:50 GMT 32.913181 -97.048782 0 0 0 0
2021-05-16 17:57:48 GMT 32.913170 -97.048782 0 0 0 0
2021-05-16 17:57:45 GMT 32.913170 -97.048782 0 0 0 0
2021-05-16 17:57:43 GMT 32.913170 -97.048798 0 0 0 0
2021-05-16 17:57:41 GMT 32.913170 -97.048798 0 0 0 0
2021-05-16 17:57:39 GMT 32.913158 -97.048790 0 0 0 0
2021-05-16 17:57:38 GMT 32.913158 -97.048798 0 0 0 0
2021-05-16 17:57:36 GMT 32.913181 -97.048782 0 0 0 0
2021-05-16 17:57:35 GMT 32.913170 -97.048790 0 0 0 0
2021-05-16 17:57:34 GMT 32.913158 -97.048798 0 0 0 0
2021-05-16 17:57:31 GMT 32.913181 -97.048782 0 0 0 0
2021-05-16 17:57:29 GMT 32.913170 -97.048790 0 0 0 0
2021-05-16 17:57:28 GMT 32.913170 -97.048813 0 0 0 0
2021-05-16 17:57:27 GMT 32.913181 -97.048798 0 0 0 0
2021-05-16 17:57:26 GMT 32.913170 -97.048798 0 0 0 0
2021-05-16 17:57:25 GMT 32.913170 -97.048798 0 0 0 0
2021-05-16 17:57:23 GMT 32.913181 -97.048790 0 0 0 0
2021-05-16 17:57:22 GMT 32.913170 -97.048798 0 0 0 0
2021-05-16 17:57:20 GMT 32.913170 -97.048798 0 0 0 0
2021-05-16 17:57:18 GMT 32.913151 -97.048798 0 0 0 0
2021-05-16 17:57:17 GMT 32.913158 -97.048798 0 0 0 0
2021-05-16 17:57:16 GMT 32.913170 -97.048798 0 0 0 0
2021-05-16 17:57:13 GMT 32.913151 -97.048798 0 0 0 0
2021-05-16 17:57:12 GMT 32.913158 -97.048798 0 0 0 0
2021-05-16 17:57:11 GMT 32.913181 -97.048813 0 0 0 0
2021-05-16 17:57:07 GMT 32.913170 -97.048798 0 0 0 0
2021-05-16 17:57:05 GMT 32.913170 -97.048798 0 0 0 0
2021-05-16 17:57:03 GMT 32.913170 -97.048790 0 0 0 0
2021-05-16 17:57:02 GMT 32.913170 -97.048782 0 0 0 0
2021-05-16 17:57:00 GMT 32.913170 -97.048798 0 0 0 0
2021-05-16 17:56:58 GMT 32.913170 -97.048782 0 0 0 0
2021-05-16 17:56:55 GMT 32.913181 -97.048782 0 0 0 0
2021-05-16 17:56:54 GMT 32.913158 -97.048782 0 0 0 0
2021-05-16 17:56:52 GMT 32.913170 -97.048782 0 0 0 0
2021-05-16 17:56:50 GMT 32.913158 -97.048798 0 0 0 0
2021-05-16 17:56:48 GMT 32.913158 -97.048790 0 0 0 0
2021-05-16 17:56:47 GMT 32.913170 -97.048798 0 0 0 0
2021-05-16 17:56:45 GMT 32.913181 -97.048782 0 0 0 0
2021-05-16 17:56:43 GMT 32.913151 -97.048798 0 0 0 0
2021-05-16 17:56:42 GMT 32.913158 -97.048798 0 0 0 0
2021-05-16 17:56:40 GMT 32.913170 -97.048798 0 0 0 0
2021-05-16 17:56:38 GMT 32.913151 -97.048798 0 0 0 0
2021-05-16 17:56:37 GMT 32.913158 -97.048798 0 0 0 0
2021-05-16 17:56:35 GMT 32.913170 -97.048798 0 0 0 0
2021-05-16 17:56:34 GMT 32.913158 -97.048798 0 0 0 0
2021-05-16 17:56:33 GMT 32.913151 -97.048798 0 0 0 0
2021-05-16 17:56:32 GMT 32.913158 -97.048798 0 0 0 0
2021-05-16 17:56:30 GMT 32.913170 -97.048798 0 0 0 0
2021-05-16 17:56:28 GMT 32.913158 -97.048798 0 0 0 0
2021-05-16 17:56:26 GMT 32.913170 -97.048798 0 0 0 0
2021-05-16 17:56:24 GMT 32.913170 -97.048790 0 0 0 0
2021-05-16 17:56:23 GMT 32.913158 -97.048790 0 0 0 0
2021-05-16 17:56:22 GMT 32.913170 -97.048798 0 0 0 0
2021-05-16 17:56:20 GMT 32.913181 -97.048782 0 0 0 0
2021-05-16 17:56:19 GMT 32.913181 -97.048790 0 0 0 0
2021-05-16 17:56:17 GMT 32.913181 -97.048782 0 0 0 0
2021-05-16 17:56:15 GMT 32.913170 -97.048798 0 0 0 0
2021-05-16 17:56:14 GMT 32.913158 -97.048798 0 0 0 0
2021-05-16 17:56:12 GMT 32.913181 -97.048782 0 0 0 0
2021-05-16 17:56:10 GMT 32.913181 -97.048790 0 0 0 0
2021-05-16 17:56:08 GMT 32.913151 -97.048798 0 0 1 0
2021-05-16 17:56:05 GMT 32.913181 -97.048782 0 0 0 0
2021-05-16 17:56:04 GMT 32.913181 -97.048790 0 0 0 0
2021-05-16 17:56:02 GMT 32.913189 -97.048767 0 0 1 0
2021-05-16 17:56:01 GMT 32.913181 -97.048782 0 0 0 0
2021-05-16 17:56:00 GMT 32.913170 -97.048798 0 0 0 0
2021-05-16 17:55:59 GMT 32.913151 -97.048798 0 0 0 0
2021-05-16 17:55:57 GMT 32.913158 -97.048798 0 0 0 0
2021-05-16 17:55:56 GMT 32.913170 -97.048782 0 0 0 0
2021-05-16 17:55:55 GMT 32.913170 -97.048790 0 0 0 0
2021-05-16 17:55:53 GMT 32.913158 -97.048790 0 0 0 0
2021-05-16 17:55:52 GMT 32.913170 -97.048782 0 0 0 0
2021-05-16 17:55:50 GMT 32.913170 -97.048798 0 0 0 0
2021-05-16 17:55:49 GMT 32.913181 -97.048790 0 0 0 0
2021-05-16 17:55:47 GMT 32.913170 -97.048782 0 0 0 0
2021-05-16 17:55:46 GMT 32.913158 -97.048798 0 0 0 0
2021-05-16 17:55:44 GMT 32.913170 -97.048790 0 0 0 0
2021-05-16 17:55:43 GMT 32.913151 -97.048798 0 0 0 0
2021-05-16 17:55:42 GMT 32.913158 -97.048798 0 0 0 0
2021-05-16 17:55:41 GMT 32.913181 -97.048782 0 0 0 0
2021-05-16 17:55:39 GMT 32.913170 -97.048798 0 0 0 0
2021-05-16 17:55:37 GMT 32.913158 -97.048798 0 0 0 0
2021-05-16 17:55:35 GMT 32.913170 -97.048798 0 0 0 0
2021-05-16 17:55:34 GMT 32.913170 -97.048790 0 0 0 0
2021-05-16 17:55:33 GMT 32.913158 -97.048790 0 0 0 0
2021-05-16 17:55:29 GMT 32.913170 -97.048798 0 0 0 0
2021-05-16 17:55:27 GMT 32.913158 -97.048798 0 0 0 0
2021-05-16 17:55:26 GMT 32.913181 -97.048782 0 0 0 0
2021-05-16 17:55:25 GMT 32.913170 -97.048790 0 0 0 0
2021-05-16 17:55:23 GMT 32.913151 -97.048798 0 0 0 0
2021-05-16 17:55:22 GMT 32.913158 -97.048798 0 0 0 0
2021-05-16 17:55:21 GMT 32.913181 -97.048782 0 0 0 0
2021-05-16 17:55:19 GMT 32.913181 -97.048782 0 0 0 0
2021-05-16 17:55:17 GMT 32.913158 -97.048790 0 0 0 0
2021-05-16 17:55:15 GMT 32.913170 -97.048782 0 0 0 0
2021-05-16 17:55:14 GMT 32.913151 -97.048798 0 0 0 0
2021-05-16 17:55:12 GMT 32.913151 -97.048798 0 0 0 0
2021-05-16 17:55:10 GMT 32.913181 -97.048782 0 0 0 0
2021-05-16 17:55:09 GMT 32.913181 -97.048813 0 0 0 0
2021-05-16 17:55:08 GMT 32.913170 -97.048790 0 0 1 0
2021-05-16 17:55:06 GMT 32.913181 -97.048782 0 0 1 0
2021-05-16 17:55:05 GMT 32.913170 -97.048798 0 0 0 0
2021-05-16 17:55:01 GMT 32.913151 -97.048790 0 0 1 0
2021-05-16 17:55:00 GMT 32.913132 -97.048798 0 0 0 0
2021-05-16 17:54:59 GMT 32.913139 -97.048782 0 0 0 0
2021-05-16 17:54:57 GMT 32.913120 -97.048798 0 0 0 0
2021-05-16 17:54:54 GMT 32.913120 -97.048798 0 0 0 0
2021-05-16 17:54:52 GMT 32.913101 -97.048790 0 0 0 0
2021-05-16 17:54:51 GMT 32.913109 -97.048790 0 0 0 0
2021-05-16 17:54:49 GMT 32.913120 -97.048790 0 0 0 0
2021-05-16 17:54:47 GMT 32.913101 -97.048790 0 0 0 0
2021-05-16 17:54:46 GMT 32.913109 -97.048790 0 0 0 0
2021-05-16 17:54:44 GMT 32.913109 -97.048790 0 0 0 0
2021-05-16 17:54:43 GMT 32.913101 -97.048790 0 0 0 0
2021-05-16 17:54:42 GMT 32.913132 -97.048790 0 0 0 0
2021-05-16 17:54:39 GMT 32.913132 -97.048790 0 0 0 0
2021-05-16 17:54:38 GMT 32.913109 -97.048790 0 0 0 0
2021-05-16 17:54:37 GMT 32.913132 -97.048790 0 0 0 0
2021-05-16 17:54:34 GMT 32.913139 -97.048782 0 0 0 0
2021-05-16 17:54:33 GMT 32.913120 -97.048782 0 0 0 0
2021-05-16 17:54:32 GMT 32.913132 -97.048782 0 0 0 0
2021-05-16 17:54:27 GMT 32.913139 -97.048767 0 0 0 0
2021-05-16 17:54:24 GMT 32.913120 -97.048759 0 0 0 0
2021-05-16 17:54:21 GMT 32.913109 -97.048759 0 0 0 0
2021-05-16 17:54:19 GMT 32.913109 -97.048767 0 0 0 0
2021-05-16 17:54:15 GMT 32.913109 -97.048767 0 0 0 0
2021-05-16 17:54:13 GMT 32.913120 -97.048759 0 0 0 0
2021-05-16 17:54:12 GMT 32.913109 -97.048759 0 359 0 0
2021-05-16 17:54:11 GMT 32.913101 -97.048767 0 359 2 0
2021-05-16 17:54:08 GMT 32.913120 -97.048767 0 359 0 0
2021-05-16 17:54:06 GMT 32.913120 -97.048759 0 359 0 0
2021-05-16 17:54:05 GMT 32.913109 -97.048759 0 359 0 0
2021-05-16 17:54:02 GMT 32.913109 -97.048767 0 359 1 0
2021-05-16 17:54:00 GMT 32.913101 -97.048759 0 359 0 0
2021-05-16 17:53:59 GMT 32.913109 -97.048752 0 359 1 0
2021-05-16 17:53:58 GMT 32.913101 -97.048759 0 359 2 0
2021-05-16 17:53:56 GMT 32.913132 -97.048782 0 359 0 0
2021-05-16 17:53:55 GMT 32.913120 -97.048790 0 359 0 0
2021-05-16 17:53:54 GMT 32.913109 -97.048767 0 359 1 0
2021-05-16 17:53:52 GMT 32.913132 -97.048759 0 359 3 0
2021-05-16 17:53:51 GMT 32.913109 -97.048782 0 358 2 0
2021-05-16 17:53:50 GMT 32.913109 -97.048790 0 1 3 0
2021-05-16 17:53:48 GMT 32.913078 -97.048767 0 6 4 0
2021-05-16 17:53:47 GMT 32.913071 -97.048767 0 4 4 0
2021-05-16 17:53:46 GMT 32.913029 -97.048790 0 1 4 0
2021-05-16 17:53:44 GMT 32.913029 -97.048782 0 2 6 0
2021-05-16 17:53:43 GMT 32.912998 -97.048782 0 2 6 0
2021-05-16 17:53:42 GMT 32.912979 -97.048790 0 0 7 0
2021-05-16 17:53:40 GMT 32.912899 -97.048790 0 357 6 0
2021-05-16 17:53:39 GMT 32.912891 -97.048790 0 354 7 0
2021-05-16 17:53:38 GMT 32.912849 -97.048790 0 352 6 0
2021-05-16 17:53:36 GMT 32.912800 -97.048782 0 359 8 0
2021-05-16 17:53:35 GMT 32.912769 -97.048782 0 359 7 0
2021-05-16 17:53:34 GMT 32.912739 -97.048759 0 359 9 0
2021-05-16 17:53:32 GMT 32.912670 -97.048790 0 351 10 0
2021-05-16 17:53:31 GMT 32.912628 -97.048767 0 359 11 0
2021-05-16 17:53:30 GMT 32.912529 -97.048737 0 9 12 0
2021-05-16 17:53:28 GMT 32.912460 -97.048752 0 5 11 0
2021-05-16 17:53:26 GMT 32.912361 -97.048782 0 2 11 0
2021-05-16 17:53:25 GMT 32.912258 -97.048790 0 358 10 0
2021-05-16 17:53:23 GMT 32.912231 -97.048790 0 358 12 0
2021-05-16 17:53:21 GMT 32.912128 -97.048782 0 3 13 0
2021-05-16 17:53:20 GMT 32.912071 -97.048782 0 4 13 0
2021-05-16 17:53:19 GMT 32.911961 -97.048782 0 5 13 0
2021-05-16 17:53:17 GMT 32.911911 -97.048813 0 358 15 0
2021-05-16 17:53:16 GMT 32.911839 -97.048813 0 359 14 0
2021-05-16 17:53:14 GMT 32.911709 -97.048813 0 352 16 0
2021-05-16 17:53:12 GMT 32.911560 -97.048782 0 0 16 0
2021-05-16 17:53:10 GMT 32.911411 -97.048798 0 357 16 0
2021-05-16 17:53:09 GMT 32.911331 -97.048790 0 0 15 0
2021-05-16 17:53:08 GMT 32.911259 -97.048782 0 0 15 0
2021-05-16 17:53:07 GMT 32.911190 -97.048782 0 3 14 0
2021-05-16 17:53:05 GMT 32.911072 -97.048790 0 3 15 0
2021-05-16 17:53:04 GMT 32.910999 -97.048798 0 0 14 0
2021-05-16 17:53:02 GMT 32.910881 -97.048798 0 1 15 0
2021-05-16 17:53:01 GMT 32.910801 -97.048798 0 3 14 0
2021-05-16 17:53:00 GMT 32.910740 -97.048798 0 4 14 0
2021-05-16 17:52:58 GMT 32.910610 -97.048813 0 1 16 0
2021-05-16 17:52:57 GMT 32.910519 -97.048813 0 1 13 0
2021-05-16 17:52:56 GMT 32.910389 -97.048820 0 357 12 0
2021-05-16 17:52:54 GMT 32.910332 -97.048820 0 352 11 0
2021-05-16 17:52:53 GMT 32.910301 -97.048820 0 350 13 0
2021-05-16 17:52:51 GMT 32.910191 -97.048790 0 2 15 0
2021-05-16 17:52:50 GMT 32.910110 -97.048782 0 7 14 0
2021-05-16 17:52:49 GMT 32.910049 -97.048813 0 359 14 0
2021-05-16 17:52:47 GMT 32.909908 -97.048813 0 357 12 0
2021-05-16 17:52:46 GMT 32.909859 -97.048813 0 359 12 0
2021-05-16 17:52:45 GMT 32.909801 -97.048782 0 9 12 0
2021-05-16 17:52:43 GMT 32.909679 -97.048798 0 6 11 0
2021-05-16 17:52:42 GMT 32.909641 -97.048798 0 2 13 0
2021-05-16 17:52:40 GMT 32.909519 -97.048820 0 359 13 0
2021-05-16 17:52:39 GMT 32.909470 -97.048843 0 355 15 0
2021-05-16 17:52:37 GMT 32.909302 -97.048820 0 357 12 0
2021-05-16 17:52:36 GMT 32.909248 -97.048820 0 358 12 0
2021-05-16 17:52:35 GMT 32.909119 -97.048798 0 3 10 0
2021-05-16 17:52:33 GMT 32.909069 -97.048820 0 357 10 0
2021-05-16 17:52:32 GMT 32.908989 -97.048820 0 359 11 0
2021-05-16 17:52:30 GMT 32.908932 -97.048790 0 7 11 0
2021-05-16 17:52:29 GMT 32.908878 -97.048798 0 6 10 0
2021-05-16 17:52:27 GMT 32.908772 -97.048813 0 6 9 0
2021-05-16 17:52:26 GMT 32.908730 -97.048828 0 359 8 0
2021-05-16 17:52:25 GMT 32.908691 -97.048843 0 358 8 0
2021-05-16 17:52:23 GMT 32.908611 -97.048851 0 2 7 0
2021-05-16 17:52:22 GMT 32.908562 -97.048820 0 4 5 0
2021-05-16 17:52:21 GMT 32.908531 -97.048828 0 2 4 0
2021-05-16 17:52:19 GMT 32.908501 -97.048820 0 4 5 0
2021-05-16 17:52:18 GMT 32.908470 -97.048828 0 1 4 0
2021-05-16 17:52:17 GMT 32.908421 -97.048820 0 2 3 0
2021-05-16 17:52:15 GMT 32.908401 -97.048843 0 359 2 0
2021-05-16 17:52:14 GMT 32.908401 -97.048828 0 359 2 0
2021-05-16 17:52:12 GMT 32.908371 -97.048843 0 359 0 0
2021-05-16 17:52:11 GMT 32.908371 -97.048859 0 358 2 0
2021-05-16 17:52:09 GMT 32.908352 -97.048859 0 358 2 0
2021-05-16 17:52:08 GMT 32.908352 -97.048843 0 358 0 0
2021-05-16 17:52:07 GMT 32.908340 -97.048828 0 358 1 0
2021-05-16 17:52:05 GMT 32.908340 -97.048828 0 358 0 0
2021-05-16 17:52:04 GMT 32.908352 -97.048843 0 358 1 0
2021-05-16 17:52:02 GMT 32.908352 -97.048851 0 358 1 0
2021-05-16 17:52:00 GMT 32.908371 -97.048851 0 358 0 0
2021-05-16 17:51:59 GMT 32.908360 -97.048843 0 359 1 0
2021-05-16 17:51:58 GMT 32.908379 -97.048859 0 1 2 0
2021-05-16 17:51:57 GMT 32.908352 -97.048828 0 5 0 0
2021-05-16 17:51:55 GMT 32.908352 -97.048828 0 5 0 0
2021-05-16 17:51:53 GMT 32.908340 -97.048828 0 5 0 0
2021-05-16 17:51:49 GMT 32.908340 -97.048820 0 5 0 0
2021-05-16 17:51:48 GMT 32.908340 -97.048828 0 6 2 0
2021-05-16 17:51:47 GMT 32.908340 -97.048820 0 2 3 0
2021-05-16 17:51:44 GMT 32.908298 -97.048851 0 356 0 0
2021-05-16 17:51:42 GMT 32.908310 -97.048851 0 359 4 0
2021-05-16 17:51:41 GMT 32.908291 -97.048843 0 4 4 0
2021-05-16 17:51:39 GMT 32.908260 -97.048843 0 356 4 0
2021-05-16 17:51:38 GMT 32.908218 -97.048859 0 346 5 0
2021-05-16 17:51:36 GMT 32.908211 -97.048889 0 349 8 0
2021-05-16 17:51:35 GMT 32.908161 -97.048828 0 353 4 0
2021-05-16 17:51:34 GMT 32.908131 -97.048843 0 351 5 0
2021-05-16 17:51:32 GMT 32.908112 -97.048843 0 355 6 0
2021-05-16 17:51:30 GMT 32.908051 -97.048790 0 15 6 0
2021-05-16 17:51:29 GMT 32.908020 -97.048798 0 14 5 0
2021-05-16 17:51:28 GMT 32.908001 -97.048813 0 10 5 0
2021-05-16 17:51:26 GMT 32.907940 -97.048820 0 358 5 0
2021-05-16 17:51:25 GMT 32.907940 -97.048851 0 351 7 0
2021-05-16 17:51:24 GMT 32.907860 -97.048843 0 349 5 0
2021-05-16 17:51:21 GMT 32.907848 -97.048851 0 354 11 0
2021-05-16 17:51:19 GMT 32.907761 -97.048813 0 0 11 0
2021-05-16 17:51:18 GMT 32.907719 -97.048820 0 358 12 0
2021-05-16 17:51:17 GMT 32.907669 -97.048820 0 0 12 0
2021-05-16 17:51:15 GMT 32.907551 -97.048798 0 5 12 0
2021-05-16 17:51:14 GMT 32.907501 -97.048813 0 2 13 0
2021-05-16 17:51:13 GMT 32.907398 -97.048828 0 359 15 0
2021-05-16 17:51:11 GMT 32.907349 -97.048820 0 1 17 0
2021-05-16 17:51:10 GMT 32.907269 -97.048820 0 1 16 0
2021-05-16 17:51:08 GMT 32.907120 -97.048859 0 346 16 0
2021-05-16 17:51:07 GMT 32.907059 -97.048820 0 358 16 0
2021-05-16 17:51:06 GMT 32.906910 -97.048820 0 359 15 0
2021-05-16 17:51:04 GMT 32.906849 -97.048798 0 8 17 0
2021-05-16 17:51:03 GMT 32.906769 -97.048798 0 8 17 0
2021-05-16 17:51:01 GMT 32.906639 -97.048828 0 357 18 0
2021-05-16 17:51:00 GMT 32.906559 -97.048843 0 349 17 0
2021-05-16 17:50:58 GMT 32.906410 -97.048813 0 336 14 0
2021-05-16 17:50:57 GMT 32.906330 -97.048782 0 321 12 0
2021-05-16 17:50:56 GMT 32.906269 -97.048767 0 307 12 0
2021-05-16 17:50:55 GMT 32.906219 -97.048737 0 296 12 0
2021-05-16 17:50:53 GMT 32.906139 -97.048637 0 283 13 0
2021-05-16 17:50:52 GMT 32.906109 -97.048561 0 278 11 0
2021-05-16 17:50:51 GMT 32.906090 -97.048439 0 270 12 0
2021-05-16 17:50:49 GMT 32.906071 -97.048378 0 265 13 0
2021-05-16 17:50:48 GMT 32.906071 -97.048302 0 267 12 0
2021-05-16 17:50:47 GMT 32.906078 -97.048203 0 279 13 0
2021-05-16 17:50:45 GMT 32.906071 -97.048149 0 286 14 0
2021-05-16 17:50:44 GMT 32.906071 -97.048073 0 294 13 0
2021-05-16 17:50:42 GMT 32.906029 -97.047943 0 312 12 0
2021-05-16 17:50:41 GMT 32.905998 -97.047859 0 328 11 0
2021-05-16 17:50:39 GMT 32.905930 -97.047737 0 340 11 0
2021-05-16 17:50:38 GMT 32.905891 -97.047707 0 348 12 0
2021-05-16 17:50:37 GMT 32.905849 -97.047668 0 353 13 0
2021-05-16 17:50:35 GMT 32.905750 -97.047638 0 0 16 0
2021-05-16 17:50:34 GMT 32.905689 -97.047638 0 0 17 0
2021-05-16 17:50:33 GMT 32.905609 -97.047638 0 0 17 0
2021-05-16 17:50:31 GMT 32.905441 -97.047661 0 356 15 0
2021-05-16 17:50:29 GMT 32.905251 -97.047653 0 355 18 0
2021-05-16 17:50:27 GMT 32.905170 -97.047653 0 355 19 0
2021-05-16 17:50:26 GMT 32.905071 -97.047607 0 2 17 0
2021-05-16 17:50:24 GMT 32.904942 -97.047607 0 3 20 0
2021-05-16 17:50:23 GMT 32.904850 -97.047607 0 3 19 0
2021-05-16 17:50:22 GMT 32.904678 -97.047638 0 2 20 0
2021-05-16 17:50:20 GMT 32.904591 -97.047653 0 0 21 0
2021-05-16 17:50:19 GMT 32.904499 -97.047668 0 359 20 0
2021-05-16 17:50:17 GMT 32.904301 -97.047684 0 353 20 0
2021-05-16 17:50:16 GMT 32.904179 -97.047653 0 356 18 0
2021-05-16 17:50:14 GMT 32.904041 -97.047623 0 0 20 0
2021-05-16 17:50:13 GMT 32.903950 -97.047623 0 0 19 0
2021-05-16 17:50:11 GMT 32.903759 -97.047638 0 357 20 0
2021-05-16 17:50:10 GMT 32.903660 -97.047638 0 357 19 0
2021-05-16 17:50:08 GMT 32.903481 -97.047600 0 2 19 0
2021-05-16 17:50:07 GMT 32.903412 -97.047607 0 1 20 0
2021-05-16 17:50:05 GMT 32.903210 -97.047607 0 1 19 0
2021-05-16 17:50:04 GMT 32.903130 -97.047623 0 1 19 0
2021-05-16 17:50:03 GMT 32.902950 -97.047653 0 353 20 0
2021-05-16 17:50:01 GMT 32.902851 -97.047661 0 354 19 0
2021-05-16 17:50:00 GMT 32.902760 -97.047592 0 5 18 0
2021-05-16 17:49:58 GMT 32.902592 -97.047630 0 0 18 0
2021-05-16 17:49:57 GMT 32.902512 -97.047630 0 1 19 0
2021-05-16 17:49:56 GMT 32.902340 -97.047630 0 3 19 0
2021-05-16 17:49:54 GMT 32.902260 -97.047653 0 359 21 0
2021-05-16 17:49:53 GMT 32.902081 -97.047653 0 359 21 0
2021-05-16 17:49:51 GMT 32.901970 -97.047630 0 3 20 0
2021-05-16 17:49:50 GMT 32.901890 -97.047638 0 2 21 0
2021-05-16 17:49:49 GMT 32.901691 -97.047668 0 354 20 0
2021-05-16 17:49:47 GMT 32.901588 -97.047653 0 355 19 0
2021-05-16 17:49:45 GMT 32.901409 -97.047623 0 0 18 0
2021-05-16 17:49:44 GMT 32.901329 -97.047638 0 358 18 0
2021-05-16 17:49:42 GMT 32.901180 -97.047600 0 4 18 0
2021-05-16 17:49:41 GMT 32.901001 -97.047607 0 5 17 0
2021-05-16 17:49:39 GMT 32.900921 -97.047592 0 11 18 0
2021-05-16 17:49:38 GMT 32.900822 -97.047668 0 358 15 0
2021-05-16 17:49:36 GMT 32.900749 -97.047661 0 359 19 0
2021-05-16 17:49:35 GMT 32.900539 -97.047668 0 355 15 0
2021-05-16 17:49:33 GMT 32.900459 -97.047668 0 356 15 0
2021-05-16 17:49:32 GMT 32.900379 -97.047630 0 0 14 0
2021-05-16 17:49:31 GMT 32.900299 -97.047630 0 1 14 0
2021-05-16 17:49:30 GMT 32.900219 -97.047623 0 1 13 0
2021-05-16 17:49:29 GMT 32.900150 -97.047630 0 1 12 0
2021-05-16 17:49:27 GMT 32.900028 -97.047638 0 0 11 0
2021-05-16 17:49:26 GMT 32.899971 -97.047638 0 0 10 0
2021-05-16 17:49:25 GMT 32.899921 -97.047638 0 0 10 0
2021-05-16 17:49:23 GMT 32.899872 -97.047653 0 359 11 0
2021-05-16 17:49:22 GMT 32.899811 -97.047638 0 359 11 0
2021-05-16 17:49:21 GMT 32.899761 -97.047638 0 0 11 0
2021-05-16 17:49:19 GMT 32.899651 -97.047638 0 1 10 0
2021-05-16 17:49:18 GMT 32.899551 -97.047638 0 1 8 0
2021-05-16 17:49:16 GMT 32.899521 -97.047638 0 359 9 0
2021-05-16 17:49:15 GMT 32.899479 -97.047653 0 358 10 0
2021-05-16 17:49:13 GMT 32.899429 -97.047638 0 0 12 0
2021-05-16 17:49:11 GMT 32.899319 -97.047638 0 2 13 0
2021-05-16 17:49:10 GMT 32.899269 -97.047630 0 2 13 0
2021-05-16 17:49:09 GMT 32.899200 -97.047630 0 3 13 0
2021-05-16 17:49:07 GMT 32.899078 -97.047630 0 4 12 0
2021-05-16 17:49:06 GMT 32.899021 -97.047630 0 1 11 0
2021-05-16 17:49:05 GMT 32.898891 -97.047653 0 358 10 0
2021-05-16 17:49:03 GMT 32.898869 -97.047668 0 357 12 0
2021-05-16 17:49:02 GMT 32.898849 -97.047653 0 358 14 0
2021-05-16 17:49:00 GMT 32.898769 -97.047653 0 359 16 0
2021-05-16 17:48:59 GMT 32.898701 -97.047653 0 359 17 0
2021-05-16 17:48:57 GMT 32.898560 -97.047638 0 359 17 0
2021-05-16 17:48:56 GMT 32.898479 -97.047630 0 0 17 0
2021-05-16 17:48:55 GMT 32.898411 -97.047630 0 2 17 0
2021-05-16 17:48:54 GMT 32.898331 -97.047630 0 2 17 0
2021-05-16 17:48:52 GMT 32.898178 -97.047638 0 1 18 0
2021-05-16 17:48:51 GMT 32.898090 -97.047638 0 1 17 0
2021-05-16 17:48:50 GMT 32.897942 -97.047623 0 7 18 0
2021-05-16 17:48:48 GMT 32.897850 -97.047630 0 8 18 0
2021-05-16 17:48:47 GMT 32.897781 -97.047661 0 2 19 0
2021-05-16 17:48:45 GMT 32.897598 -97.047638 0 2 19 0
2021-05-16 17:48:44 GMT 32.897511 -97.047668 0 358 19 0
2021-05-16 17:48:42 GMT 32.897339 -97.047653 0 5 20 0
2021-05-16 17:48:41 GMT 32.897270 -97.047668 0 0 23 0
2021-05-16 17:48:40 GMT 32.897160 -97.047699 0 355 23 0
2021-05-16 17:48:39 GMT 32.897049 -97.047699 0 354 23 0
2021-05-16 17:48:37 GMT 32.896839 -97.047638 0 1 22 0
2021-05-16 17:48:35 GMT 32.896641 -97.047607 0 11 22 0
2021-05-16 17:48:34 GMT 32.896439 -97.047653 0 9 22 0
2021-05-16 17:48:32 GMT 32.896339 -97.047699 0 4 21 0
2021-05-16 17:48:30 GMT 32.896141 -97.047722 0 359 21 0
2021-05-16 17:48:29 GMT 32.896042 -97.047722 0 1 21 0
2021-05-16 17:48:28 GMT 32.895950 -97.047737 0 356 22 0
2021-05-16 17:48:26 GMT 32.895748 -97.047752 0 350 24 0
2021-05-16 17:48:25 GMT 32.895649 -97.047722 0 353 24 0
2021-05-16 17:48:24 GMT 32.895519 -97.047691 0 356 22 0
2021-05-16 17:48:22 GMT 32.895309 -97.047668 0 359 19 0
2021-05-16 17:48:21 GMT 32.895210 -97.047668 0 359 18 0
2021-05-16 17:48:20 GMT 32.895130 -97.047653 0 4 18 0
2021-05-16 17:48:19 GMT 32.894970 -97.047661 0 3 18 0
2021-05-16 17:48:17 GMT 32.894878 -97.047668 0 3 18 0
2021-05-16 17:48:16 GMT 32.894821 -97.047684 0 0 20 0
2021-05-16 17:48:15 GMT 32.894730 -97.047707 0 355 20 0
2021-05-16 17:48:14 GMT 32.894539 -97.047691 0 357 18 0
2021-05-16 17:48:12 GMT 32.894451 -97.047684 0 359 17 0
2021-05-16 17:48:10 GMT 32.894291 -97.047684 0 0 17 0
2021-05-16 17:48:09 GMT 32.894230 -97.047653 0 8 18 0
2021-05-16 17:48:07 GMT 32.894039 -97.047684 0 358 18 0
2021-05-16 17:48:06 GMT 32.893959 -97.047668 0 2 18 0
2021-05-16 17:48:05 GMT 32.893871 -97.047691 0 357 18 0
2021-05-16 17:48:03 GMT 32.893719 -97.047668 0 359 20 0
2021-05-16 17:48:02 GMT 32.893620 -97.047661 0 2 20 0
2021-05-16 17:48:00 GMT 32.893429 -97.047684 0 0 19 0
2021-05-16 17:47:59 GMT 32.893330 -97.047684 0 2 18 0
2021-05-16 17:47:58 GMT 32.893261 -97.047691 0 359 19 0
2021-05-16 17:47:56 GMT 32.893089 -97.047691 0 359 21 0
2021-05-16 17:47:55 GMT 32.893002 -97.047661 0 3 21 0
2021-05-16 17:47:54 GMT 32.892891 -97.047684 0 1 20 0
2021-05-16 17:47:53 GMT 32.892712 -97.047684 0 1 22 0
2021-05-16 17:47:51 GMT 32.892609 -97.047684 0 2 22 0
2021-05-16 17:47:49 GMT 32.892399 -97.047699 0 1 20 0
2021-05-16 17:47:48 GMT 32.892300 -97.047707 0 358 18 0
2021-05-16 17:47:47 GMT 32.892231 -97.047691 0 2 20 0
2021-05-16 17:47:45 GMT 32.892052 -97.047722 0 358 21 0
2021-05-16 17:47:43 GMT 32.891850 -97.047729 0 353 19 0
2021-05-16 17:47:41 GMT 32.891670 -97.047707 0 356 20 0
2021-05-16 17:47:40 GMT 32.891579 -97.047668 0 2 21 0
2021-05-16 17:47:38 GMT 32.891392 -97.047661 0 6 21 0
2021-05-16 17:47:37 GMT 32.891270 -97.047699 0 1 19 0
2021-05-16 17:47:36 GMT 32.891178 -97.047699 0 1 19 0
2021-05-16 17:47:34 GMT 32.891010 -97.047729 0 356 20 0
2021-05-16 17:47:33 GMT 32.890911 -97.047722 0 356 19 0
2021-05-16 17:47:32 GMT 32.890732 -97.047691 0 2 20 0
2021-05-16 17:47:30 GMT 32.890652 -97.047722 0 356 20 0
2021-05-16 17:47:29 GMT 32.890530 -97.047699 0 0 19 0
2021-05-16 17:47:27 GMT 32.890369 -97.047699 0 0 20 0
2021-05-16 17:47:26 GMT 32.890259 -97.047707 0 357 18 0
2021-05-16 17:47:24 GMT 32.890091 -97.047684 0 4 20 0
2021-05-16 17:47:23 GMT 32.889992 -97.047707 0 359 18 0
2021-05-16 17:47:22 GMT 32.889912 -97.047707 0 354 18 0
2021-05-16 17:47:20 GMT 32.889740 -97.047691 0 352 19 0
2021-05-16 17:47:19 GMT 32.889648 -97.047638 0 5 19 0
2021-05-16 17:47:18 GMT 32.889568 -97.047638 0 6 20 0
2021-05-16 17:47:16 GMT 32.889381 -97.047668 0 7 19 0
2021-05-16 17:47:15 GMT 32.889301 -97.047684 0 8 19 0
2021-05-16 17:47:14 GMT 32.889191 -97.047699 0 4 17 0
2021-05-16 17:47:12 GMT 32.889030 -97.047737 0 355 17 0
2021-05-16 17:47:11 GMT 32.888950 -97.047752 0 352 17 0
2021-05-16 17:47:10 GMT 32.888882 -97.047722 0 356 18 0
2021-05-16 17:47:08 GMT 32.888710 -97.047722 0 357 18 0
2021-05-16 17:47:07 GMT 32.888611 -97.047729 0 354 16 0
2021-05-16 17:47:05 GMT 32.888470 -97.047668 0 5 18 0
2021-05-16 17:47:04 GMT 32.888390 -97.047699 0 1 18 0
2021-05-16 17:47:03 GMT 32.888222 -97.047699 0 2 18 0
2021-05-16 17:47:01 GMT 32.888142 -97.047722 0 357 19 0
2021-05-16 17:47:00 GMT 32.888062 -97.047707 0 359 19 0
2021-05-16 17:46:59 GMT 32.887981 -97.047691 0 5 19 0
2021-05-16 17:46:57 GMT 32.887810 -97.047707 0 0 20 0
2021-05-16 17:46:56 GMT 32.887711 -97.047729 0 357 19 0
2021-05-16 17:46:54 GMT 32.887539 -97.047707 0 0 17 0
2021-05-16 17:46:53 GMT 32.887451 -97.047707 0 359 17 0
2021-05-16 17:46:51 GMT 32.887291 -97.047722 0 356 16 0
2021-05-16 17:46:50 GMT 32.887218 -97.047707 0 358 16 0
2021-05-16 17:46:49 GMT 32.887070 -97.047699 0 0 16 0
2021-05-16 17:46:47 GMT 32.886990 -97.047699 0 359 16 0
2021-05-16 17:46:45 GMT 32.886841 -97.047699 0 2 16 0
2021-05-16 17:46:44 GMT 32.886749 -97.047684 0 6 14 0
2021-05-16 17:46:43 GMT 32.886620 -97.047691 0 355 13 0
2021-05-16 17:46:41 GMT 32.886570 -97.047722 0 347 13 0
2021-05-16 17:46:40 GMT 32.886509 -97.047707 0 339 13 0
2021-05-16 17:46:38 GMT 32.886379 -97.047691 0 326 12 0
2021-05-16 17:46:36 GMT 32.886292 -97.047623 0 319 12 0
2021-05-16 17:46:35 GMT 32.886250 -97.047592 0 311 13 0
2021-05-16 17:46:34 GMT 32.886150 -97.047508 0 291 12 0
2021-05-16 17:46:32 GMT 32.886108 -97.047478 0 286 14 0
2021-05-16 17:46:31 GMT 32.886070 -97.047409 0 272 14 0
2021-05-16 17:46:29 GMT 32.886070 -97.047241 0 271 11 0
2021-05-16 17:46:28 GMT 32.886051 -97.047142 0 271 12 0
2021-05-16 17:46:26 GMT 32.886051 -97.047073 0 272 11 0
2021-05-16 17:46:25 GMT 32.886070 -97.047012 0 272 10 0
2021-05-16 17:46:24 GMT 32.886040 -97.046959 0 271 9 0
2021-05-16 17:46:22 GMT 32.886059 -97.046852 0 273 7 0
2021-05-16 17:46:21 GMT 32.886051 -97.046799 0 265 5 0
2021-05-16 17:46:20 GMT 32.886028 -97.046753 0 261 3 0
2021-05-16 17:46:18 GMT 32.886059 -97.046707 0 268 0 0
2021-05-16 17:46:15 GMT 32.886059 -97.046700 0 268 0 0
2021-05-16 17:46:12 GMT 32.886059 -97.046692 0 269 0 0
2021-05-16 17:46:10 GMT 32.886059 -97.046677 0 269 0 0
2021-05-16 17:46:09 GMT 32.886059 -97.046692 0 269 0 0
2021-05-16 17:46:07 GMT 32.886051 -97.046661 0 268 0 0
2021-05-16 17:46:06 GMT 32.886028 -97.046669 0 268 2 0
2021-05-16 17:46:04 GMT 32.886051 -97.046654 0 269 0 0
2021-05-16 17:46:03 GMT 32.886059 -97.046638 0 269 1 0
2021-05-16 17:46:01 GMT 32.886040 -97.046654 0 277 3 0
2021-05-16 17:46:00 GMT 32.886051 -97.046608 0 278 1 0
2021-05-16 17:45:58 GMT 32.886059 -97.046600 0 279 0 0
2021-05-16 17:45:57 GMT 32.886051 -97.046600 0 280 1 0
2021-05-16 17:45:56 GMT 32.886070 -97.046577 0 280 0 0
2021-05-16 17:45:55 GMT 32.886059 -97.046623 0 281 5 0
2021-05-16 17:45:54 GMT 32.886082 -97.046562 0 273 3 0
2021-05-16 17:45:52 GMT 32.886051 -97.046539 0 265 3 0
2021-05-16 17:45:51 GMT 32.886028 -97.046547 0 259 6 0
2021-05-16 17:45:50 GMT 32.886059 -97.046501 0 269 6 0
2021-05-16 17:45:48 GMT 32.886051 -97.046463 0 265 5 0
2021-05-16 17:45:47 GMT 32.886051 -97.046410 0 265 6 0
2021-05-16 17:45:45 GMT 32.886051 -97.046379 0 267 6 0
2021-05-16 17:45:44 GMT 32.886059 -97.046341 0 268 6 0
2021-05-16 17:45:42 GMT 32.886059 -97.046280 0 272 8 0
2021-05-16 17:45:41 GMT 32.886059 -97.046242 0 273 8 0
2021-05-16 17:45:39 GMT 32.886051 -97.046150 0 267 7 0
2021-05-16 17:45:38 GMT 32.886040 -97.046120 0 264 8 0
2021-05-16 17:45:37 GMT 32.886040 -97.046082 0 266 9 0
2021-05-16 17:45:36 GMT 32.886070 -97.045982 0 276 8 0
2021-05-16 17:45:34 GMT 32.886070 -97.045929 0 276 7 0
2021-05-16 17:45:32 GMT 32.886040 -97.045883 0 271 11 0
2021-05-16 17:45:31 GMT 32.886040 -97.045799 0 272 9 0
2021-05-16 17:45:29 GMT 32.886070 -97.045692 0 279 8 0
2021-05-16 17:45:28 GMT 32.886040 -97.045647 0 271 9 0
2021-05-16 17:45:26 GMT 32.886051 -97.045563 0 275 8 0
2021-05-16 17:45:25 GMT 32.886028 -97.045517 0 268 9 0
2021-05-16 17:45:24 GMT 32.886028 -97.045418 0 265 6 32
2021-05-16 17:45:22 GMT 32.886021 -97.045410 0 262 10 32
2021-05-16 17:45:21 GMT 32.886028 -97.045349 0 265 9 32
2021-05-16 17:45:19 GMT 32.886028 -97.045242 0 265 9 32
2021-05-16 17:45:17 GMT 32.886059 -97.045143 0 277 9 -32
2021-05-16 17:45:16 GMT 32.886051 -97.045097 0 273 10 96
2021-05-16 17:45:14 GMT 32.886028 -97.044952 0 263 6 -128
2021-05-16 17:45:12 GMT 32.886028 -97.044937 0 266 12 -128
2021-05-16 17:45:10 GMT 32.886059 -97.044777 0 272 9 -128
2021-05-16 17:45:09 GMT 32.886040 -97.044731 0 267 10 0
2021-05-16 17:45:07 GMT 32.886051 -97.044609 0 272 11 -32
2021-05-16 17:45:06 GMT 32.886051 -97.044548 0 273 11 -32
2021-05-16 17:45:04 GMT 32.886040 -97.044441 0 272 11 -32
2021-05-16 17:45:03 GMT 32.886040 -97.044380 0 276 12 -32
2021-05-16 17:45:02 GMT 32.886021 -97.044228 0 260 11 -32
2021-05-16 17:45:00 GMT 32.886021 -97.044167 0 262 11 -32
2021-05-16 17:44:59 GMT 32.886040 -97.044151 0 265 17 -32
2021-05-16 17:44:58 GMT 32.886051 -97.044052 0 268 15 -32
2021-05-16 17:44:56 GMT 32.886051 -97.043877 0 270 16 -32
2021-05-16 17:44:55 GMT 32.886040 -97.043793 0 267 15 -32
2021-05-16 17:44:54 GMT 32.886059 -97.043640 0 272 16 -32
2021-05-16 17:44:52 GMT 32.886059 -97.043556 0 275 17 -32
2021-05-16 17:44:51 GMT 32.886059 -97.043449 0 275 15 -32
2021-05-16 17:44:49 GMT 32.886028 -97.043289 0 269 14 -32
2021-05-16 17:44:48 GMT 32.886051 -97.043221 0 276 16 -32
2021-05-16 17:44:47 GMT 32.886021 -97.043037 0 269 16 -32
2021-05-16 17:44:45 GMT 32.886009 -97.042953 0 265 15 -32
2021-05-16 17:44:44 GMT 32.885990 -97.042877 0 258 16 -32
2021-05-16 17:44:43 GMT 32.886040 -97.042686 0 272 15 -32
2021-05-16 17:44:41 GMT 32.886051 -97.042603 0 275 14 -32
2021-05-16 17:44:40 GMT 32.886028 -97.042519 0 269 15 -32
2021-05-16 17:44:39 GMT 32.886009 -97.042351 0 264 15 -32
2021-05-16 17:44:37 GMT 32.886028 -97.042282 0 269 17 -32
2021-05-16 17:44:36 GMT 32.886028 -97.042191 0 269 16 -32
2021-05-16 17:44:34 GMT 32.886028 -97.042000 0 272 13 0
2021-05-16 17:44:33 GMT 32.886028 -97.041939 0 272 14 0
2021-05-16 17:44:31 GMT 32.886009 -97.041801 0 261 16 0
2021-05-16 17:44:30 GMT 32.886051 -97.041679 0 273 12 0
2021-05-16 17:44:29 GMT 32.886059 -97.041618 0 275 14 0
2021-05-16 17:44:27 GMT 32.886040 -97.041473 0 273 14 0
2021-05-16 17:44:26 GMT 32.886040 -97.041389 0 271 13 0
2021-05-16 17:44:25 GMT 32.886021 -97.041328 0 265 15 0
2021-05-16 17:44:23 GMT 32.886040 -97.041161 0 270 13 0
2021-05-16 17:44:21 GMT 32.886028 -97.041008 0 273 13 0
2021-05-16 17:44:20 GMT 32.886021 -97.040871 0 270 16 0
2021-05-16 17:44:18 GMT 32.886028 -97.040787 0 274 15 0
2021-05-16 17:44:17 GMT 32.886021 -97.040703 0 268 14 0
2021-05-16 17:44:16 GMT 32.886028 -97.040550 0 271 16 0
2021-05-16 17:44:14 GMT 32.886028 -97.040459 0 272 16 0
2021-05-16 17:44:13 GMT 32.886028 -97.040382 0 272 16 0
2021-05-16 17:44:12 GMT 32.886028 -97.040207 0 276 19 0
2021-05-16 17:44:10 GMT 32.886009 -97.040108 0 270 19 0
2021-05-16 17:44:08 GMT 32.885990 -97.039902 0 261 18 0
2021-05-16 17:44:07 GMT 32.886021 -97.039810 0 269 19 0
2021-05-16 17:44:05 GMT 32.886040 -97.039612 0 272 21 0
2021-05-16 17:44:04 GMT 32.886028 -97.039490 0 270 21 0
2021-05-16 17:44:03 GMT 32.886021 -97.039352 0 269 18 0
2021-05-16 17:44:02 GMT 32.886021 -97.039162 0 267 22 0
2021-05-16 17:44:00 GMT 32.886028 -97.039047 0 268 23 0
2021-05-16 17:43:59 GMT 32.886028 -97.038933 0 269 24 0
2021-05-16 17:43:57 GMT 32.886002 -97.038681 0 263 21 0
2021-05-16 17:43:56 GMT 32.886021 -97.038544 0 263 18 0
2021-05-16 17:43:55 GMT 32.886059 -97.038429 0 274 17 0
2021-05-16 17:43:53 GMT 32.886040 -97.038254 0 270 21 0
2021-05-16 17:43:52 GMT 32.886051 -97.038116 0 275 19 0
2021-05-16 17:43:51 GMT 32.886051 -97.038010 0 278 19 0
2021-05-16 17:43:49 GMT 32.885990 -97.037811 0 263 20 0
2021-05-16 17:43:48 GMT 32.886009 -97.037659 0 266 17 0
2021-05-16 17:43:47 GMT 32.886040 -97.037521 0 272 21 0
2021-05-16 17:43:45 GMT 32.886040 -97.037407 0 274 21 -32
2021-05-16 17:43:44 GMT 32.886021 -97.037270 0 270 18 -32
2021-05-16 17:43:43 GMT 32.885990 -97.037071 0 255 18 -32
2021-05-16 17:43:41 GMT 32.886028 -97.036987 0 264 19 -32
2021-05-16 17:43:40 GMT 32.886059 -97.036858 0 275 17 -32
2021-05-16 17:43:38 GMT 32.886051 -97.036682 0 278 16 -32
2021-05-16 17:43:37 GMT 32.886028 -97.036598 0 274 16 -32
2021-05-16 17:43:36 GMT 32.886021 -97.036499 0 273 15 -32
2021-05-16 17:43:34 GMT 32.886009 -97.036331 0 263 13 -64
2021-05-16 17:43:33 GMT 32.886009 -97.036240 0 267 12 -64
2021-05-16 17:43:32 GMT 32.886028 -97.036140 0 270 16 -64
2021-05-16 17:43:30 GMT 32.886040 -97.036049 0 268 14 -64
2021-05-16 17:43:29 GMT 32.886028 -97.035973 0 248 13 -64
2021-05-16 17:43:28 GMT 32.886002 -97.035851 0 225 10 -64
2021-05-16 17:43:26 GMT 32.886059 -97.035767 0 213 11 -64
2021-05-16 17:43:24 GMT 32.886162 -97.035683 0 199 8 -64
2021-05-16 17:43:23 GMT 32.886181 -97.035652 0 191 9 -64
2021-05-16 17:43:22 GMT 32.886250 -97.035591 0 172 11 -64
2021-05-16 17:43:20 GMT 32.886299 -97.035606 0 176 11
2021-05-16 17:43:19 GMT 32.886398 -97.035622 0 170 13
2021-05-16 17:43:17 GMT 32.886452 -97.035583 0 164 14
2021-05-16 17:43:15 GMT 32.886589 -97.035637 0 171 9
2021-05-16 17:43:14 GMT 32.886639 -97.035652 0 172 8
2021-05-16 17:43:12 GMT 32.886719 -97.035667 0 166 8
2021-05-16 17:43:11 GMT 32.886768 -97.035652 0 162 7
2021-05-16 17:43:10 GMT 32.886791 -97.035660 0 161 9
2021-05-16 17:43:08 GMT 32.886860 -97.035606 0 140 18

Making use of Plane Finder data

You are free to use the raw flight data, aircraft information and images provided in this report for your own purposes provided the data is correctly attributed to Plane Finder. We ask that you please credit Plane Finder and link to planefinder.net in close proximity to the content.

Optionally one of the following logos (no smaller then 150x24px) can be used and must link to planefinder.net

Embedding the Plane Finder map

You are welcome to embed the Plane Finder playback map on your website to offer visitors a more interactive experience. We suggest using the following HTML code:

<iframe src="//planefinder.net/data/report/AA3906-N605KS-7700-squawk-2021-05-16/map" width="800" height="600" seamless="seamless"></iframe>

Where our data comes from

Plane Finder has a global network of data feeds and antenna radars that receive data broadcast directly from aircraft. The primary technologies used are ADS-B and MLAT. We also show feeds from the FAA and a FLARM glider feed.

Click here to find out more about the Plane Finder network.

How we collect our data